Data for 11/02/2008

Time Sea-Level Adjusted Pressure Absolute Pressure Temperature Relative Humidity Dew Point Precipitation   
(mb) (inHg) (mb) (inHg) (C) (F) (%) (C) (F) (mm) (in)
00:01 1018 30.06 847 25.01 8.6 47.5 66 2.6 36.6 0
00:02 1018 30.06 847 25.01 8.7 47.6 65 2.6 36.6 0
00:03 1018 30.06 847 25.01 8.7 47.7 65 2.6 36.7 0
00:04 1018 30.06 847 25.01 8.9 47.9 65 2.6 36.7 0
00:05 1018 30.06 847 25.01 8.9 48 64 2.6 36.6 0
00:06 1018 30.06 847 25.01 8.7 47.6 65 2.6 36.6 0
00:07 1018 30.06 847 25.01 8.3 46.9 67 2.6 36.7 0
00:08 1018 30.06 847 25.01 8 46.5 68 2.5 36.5 0
00:09 1018 30.06 847 25.01 7.9 46.3 69 2.5 36.6 0
00:10 1018 30.06 847 25.01 7.8 46.1 69 2.5 36.6 0
00:11 1018 30.06 847 25.01 7.9 46.1 69 2.6 36.6 0
00:12 1018 30.06 847 25.01 8.2 46.7 68 2.6 36.7 0
00:13 1018 30.06 847 25.01 8.4 47.1 66 2.5 36.5 0
00:14 1018 30.06 847 25.01 8.7 47.7 65 2.6 36.6 0
00:15 1018 30.06 847 25.01 8.9 48.1 65 2.7 36.8 0
00:16 1018 30.06 847 25.01 9 48.3 65 2.7 36.9 0
00:17 1018 30.06 847 25.01 9 48.2 65 2.7 36.9 0
00:18 1018 30.06 847 25.01 9 48.1 64 2.5 36.6 0
00:19 1018 30.06 847 25.01 9.1 48.4 63 2.5 36.5 0
00:20 1018 30.06 847 25.01 9.3 48.7 63 2.6 36.7 0
00:21 1018 30.06 847 25.01 9.2 48.5 64 2.7 36.8 0
00:22 1018 30.06 847 25.01 9 48.2 65 2.7 36.9 0
00:23 1018 30.06 847 25.01 8.9 48 65 2.6 36.7 0
00:24 1018 30.06 847 25.01 9 48.1 64 2.6 36.7 0
00:25 1018 30.06 847 25.01 9 48.2 64 2.7 36.8 0
00:26 1018 30.06 847 25.01 9 48.1 65 2.7 36.9 0
00:27 1018 30.06 847 25.01 8.9 48 65 2.7 36.9 0
00:28 1018 30.06 847 25.01 8.9 47.9 65 2.7 36.8 0
00:29 1018 30.06 847 25.01 8.8 47.8 65 2.7 36.8 0
00:30 1018 30.06 847 25.01 8.7 47.7 65 2.6 36.6 0
00:31 1018 30.06 847 25.01 8.7 47.7 65 2.6 36.7 0
00:32 1018 30.06 847 25.01 8.8 47.8 65 2.6 36.7 0
00:33 1018 30.06 847 25.01 8.8 47.8 65 2.7 36.8 0
00:34 1018 30.06 847 25.01 8.6 47.5 66 2.7 36.9 0
00:35 1018 30.06 847 25.01 8.5 47.2 67 2.7 36.9 0
00:36 1018 30.06 847 25.01 8.3 46.9 68 2.7 36.9 0
00:37 1018 30.06 847 25.01 8.2 46.8 68 2.7 36.8 0
00:38 1018 30.06 847 25.01 8.3 46.9 67 2.6 36.7 0
00:39 1018 30.06 847 25.01 8.5 47.3 66 2.6 36.7 0
00:40 1018 30.06 847 25.01 8.7 47.6 65 2.6 36.7 0
00:41 1018 30.06 847 25.01 8.8 47.8 65 2.5 36.5 0
00:42 1018 30.06 847 25.01 9 48.1 64 2.5 36.6 0
00:43 1018 30.06 847 25.01 9.1 48.4 64 2.6 36.7 0
00:44 1018 30.06 847 25.01 9.2 48.5 63 2.6 36.7 0
00:45 1018 30.06 847 25.01 9.2 48.5 63 2.6 36.7 0
00:46 1018 30.06 847 25.01 9.2 48.5 64 2.6 36.8 0
00:47 1018 30.06 847 25.01 9.1 48.4 64 2.6 36.7 0
00:48 1018 30.06 847 25.01 9.1 48.4 64 2.6 36.7 0
00:49 1018 30.06 847 25.01 9.1 48.4 64 2.6 36.7 0
00:50 1018 30.06 847 25.01 9 48.3 64 2.6 36.7 0
00:51 1018 30.06 847 25.01 9.1 48.3 64 2.7 36.8 0
00:52 1018 30.06 847 25.01 9 48.2 64 2.7 36.8 0
00:53 1017 30.03 847 25.01 9 48.1 65 2.7 36.8 0
00:54 1017 30.03 847 25.01 8.8 47.9 65 2.6 36.7 0
00:55 1017 30.03 847 25.01 8.8 47.9 65 2.6 36.6 0
00:56 1017 30.03 847 25.01 8.8 47.9 65 2.6 36.6 0
00:57 1017 30.03 847 25.01 8.8 47.9 65 2.6 36.6 0
00:58 1017 30.03 847 25.01 8.8 47.9 65 2.6 36.6 0
00:59 1017 30.03 847 25.01 8.8 47.8 65 2.5 36.6 0
01:00 1017 30.03 847 25.01 8.6 47.6 65 2.5 36.6 0
01:01 1017 30.03 847 25.01 8.6 47.5 66 2.6 36.6 0
01:02 1017 30.03 846 24.98 8.6 47.5 66 2.6 36.6 0
01:03 1017 30.03 846 24.98 8.7 47.6 65 2.6 36.7 0
01:04 1017 30.03 846 24.98 8.7 47.7 66 2.6 36.8 0
01:05 1017 30.03 846 24.98 8.5 47.3 66 2.5 36.6 0
01:06 1017 30.03 846 24.98 8.2 46.8 67 2.5 36.5 0
01:07 1017 30.03 846 24.98 7.9 46.2 68 2.4 36.4 0
01:08 1017 30.03 846 24.98 7.7 45.9 69 2.4 36.4 0
01:09 1017 30.03 846 24.98 7.6 45.7 70 2.4 36.4 0
01:10 1017 30.03 846 24.98 7.7 45.8 69 2.4 36.3 0
01:11 1017 30.03 846 24.98 7.9 46.2 68 2.4 36.3 0
01:12 1017 30.03 846 24.98 8 46.5 67 2.4 36.3 0
01:13 1017 30.03 846 24.98 8.2 46.8 67 2.4 36.4 0
01:14 1017 30.03 846 24.98 8.3 46.9 67 2.4 36.4 0
01:15 1017 30.03 846 24.98 8.4 47.1 66 2.4 36.3 0
01:16 1017 30.03 846 24.98 8.5 47.4 65 2.5 36.4 0
01:17 1017 30.03 846 24.98 8.7 47.6 65 2.5 36.5 0
01:18 1017 30.03 846 24.98 8.9 47.9 64 2.5 36.5 0
01:19 1017 30.03 846 24.98 9 48.2 64 2.6 36.8 0
01:20 1017 30.03 846 24.98 9.1 48.3 64 2.6 36.7 0
01:21 1017 30.03 846 24.98 9.1 48.4 64 2.7 36.8 0
01:22 1017 30.03 846 24.98 9.1 48.4 64 2.7 36.9 0
01:23 1017 30.03 846 24.98 9.1 48.3 64 2.7 36.9 0
01:24 1017 30.03 846 24.98 9 48.3 64 2.6 36.7 0
01:25 1017 30.03 846 24.98 9.1 48.3 64 2.6 36.7 0
01:26 1017 30.03 846 24.98 9.2 48.5 63 2.6 36.6 0
01:27 1017 30.03 846 24.98 9.2 48.6 63 2.7 36.8 0
01:28 1017 30.03 846 24.98 9.1 48.4 64 2.7 36.9 0
01:29 1017 30.03 846 24.98 9 48.2 65 2.7 36.9 0
01:30 1017 30.03 846 24.98 8.9 48 65 2.7 36.9 0
01:31 1017 30.03 846 24.98 8.8 47.8 65 2.7 36.9 0
01:32 1017 30.03 846 24.98 8.8 47.8 65 2.6 36.7 0
01:33 1017 30.03 846 24.98 8.8 47.9 65 2.6 36.7 0
01:34 1017 30.03 846 24.98 8.9 48 64 2.5 36.5 0
01:35 1017 30.03 846 24.98 9.1 48.3 63 2.5 36.5 0
01:36 1017 30.03 846 24.98 9.3 48.7 62 2.5 36.5 0
01:37 1017 30.03 846 24.98 9.4 49 62 2.6 36.7 0
01:38 1017 30.03 846 24.98 9.4 48.9 63 2.7 36.9 0
01:39 1017 30.03 846 24.98 9.3 48.8 63 2.7 36.8 0
01:40 1017 30.03 846 24.98 9.3 48.7 63 2.7 36.8 0
01:41 1017 30.03 846 24.98 9.3 48.7 63 2.7 36.8 0
01:42 1017 30.03 846 24.98 9.3 48.7 63 2.6 36.7 0
01:43 1017 30.03 846 24.98 9.4 48.9 63 2.8 37 0
01:44 1017 30.03 846 24.98 9.4 48.9 63 2.8 37.1 0
01:45 1017 30.03 846 24.98 9.4 48.9 64 2.9 37.2 0
01:46 1017 30.03 846 24.98 9.4 48.8 63 2.8 37 0
01:47 1017 30.03 846 24.98 9.4 48.9 64 2.9 37.1 0
01:48 1017 30.03 846 24.98 9.3 48.7 64 2.9 37.2 0
01:49 1017 30.03 846 24.98 9.2 48.6 64 2.9 37.1 0
01:50 1017 30.03 846 24.98 9.2 48.6 64 2.8 37.1 0
01:51 1017 30.03 846 24.98 9.1 48.5 64 2.8 37 0
01:52 1017 30.03 846 24.98 9.2 48.5 64 2.8 37.1 0
01:53 1017 30.03 846 24.98 9.2 48.5 64 2.9 37.1 0
01:54 1017 30.03 846 24.98 9.2 48.5 65 2.9 37.2 0
01:55 1017 30.03 846 24.98 9.2 48.6 64 2.8 37.1 0
01:56 1017 30.03 846 24.98 9.3 48.7 64 2.9 37.2 0
01:57 1017 30.03 846 24.98 9.4 48.9 64 3 37.5 0
01:58 1017 30.03 846 24.98 9.3 48.8 64 3 37.4 0
01:59 1017 30.03 846 24.98 9.4 48.9 64 2.9 37.3 0
01:00 1017 30.03 846 24.98 9.5 49 64 3 37.4 0
01:01 1016 30 846 24.98 9.5 49.1 64 3 37.4 0
01:02 1016 30 846 24.98 9.5 49.1 64 3 37.4 0
01:03 1016 30 846 24.98 9.5 49 64 3 37.4 0
01:04 1016 30 846 24.98 9.5 49.1 64 3 37.4 0
01:05 1016 30 846 24.98 9.6 49.3 63 2.9 37.3 0
01:06 1016 30 846 24.98 9.6 49.4 63 3 37.4 0
01:07 1016 30 846 24.98 9.7 49.4 63 3.1 37.6 0
01:08 1016 30 846 24.98 9.6 49.2 63 3 37.4 0
01:09 1016 30 845 24.95 9.5 49.2 63 3 37.3 0
01:10 1016 30 846 24.98 9.6 49.2 63 2.9 37.3 0
01:11 1016 30 846 24.98 9.6 49.2 64 3.1 37.5 0
01:12 1016 30 846 24.98 9.5 49.1 64 3.1 37.6 0
01:13 1016 30 845 24.95 9.4 48.9 64 3 37.4 0
01:14 1016 30 845 24.95 9.4 49 64 3 37.4 0
01:15 1016 30 845 24.95 9.5 49 64 2.9 37.3 0
01:16 1016 30 845 24.95 9.5 49.1 63 3 37.3 0
01:17 1016 30 845 24.95 9.5 49.1 64 3 37.4 0
01:18 1016 30 845 24.95 9.5 49.2 64 3.1 37.5 0
01:19 1016 30 845 24.95 9.5 49 64 3.1 37.6 0
01:20 1016 30 845 24.95 9.4 49 65 3.1 37.6 0
01:21 1016 30 845 24.95 9.4 48.8 65 3.1 37.7 0
01:22 1016 30 845 24.95 9.3 48.8 65 3.1 37.6 0
01:23 1016 30 845 24.95 9.4 48.8 65 3.1 37.6 0
01:24 1016 30 845 24.95 9.5 49 64 3 37.5 0
01:25 1016 30 845 24.95 9.5 49.2 64 3.1 37.6 0
01:26 1016 30 845 24.95 9.6 49.2 64 3.1 37.6 0
01:27 1016 30 845 24.95 9.6 49.2 64 3.1 37.6 0
01:28 1016 30 845 24.95 9.6 49.3 63 3.1 37.5 0
01:29 1016 30 845 24.95 9.7 49.4 64 3.1 37.6 0
01:30 1016 30 845 24.95 9.7 49.4 64 3.1 37.6 0
01:31 1016 30 845 24.95 9.7 49.4 64 3.1 37.6 0
01:32 1016 30 845 24.95 9.7 49.4 64 3.1 37.7 0
01:33 1016 30 845 24.95 9.7 49.4 64 3.1 37.7 0
01:34 1016 30 845 24.95 9.8 49.6 63 3.2 37.7 0
01:35 1016 30 845 24.95 9.7 49.5 63 3.1 37.6 0
01:36 1016 30 845 24.95 9.8 49.6 63 3.2 37.7 0
01:37 1016 30 845 24.95 9.8 49.7 63 3.2 37.7 0
01:38 1016 30 845 24.95 10 49.9 62 3 37.5 0
01:39 1016 30 845 24.95 10.1 50.2 62 3.1 37.7 0
01:40 1016 30 845 24.95 10.2 50.3 62 3.2 37.8 0
01:41 1016 30 845 24.95 10.2 50.4 62 3.3 37.9 0
01:42 1016 30 845 24.95 10.2 50.4 62 3.2 37.8 0
01:43 1016 30 845 24.95 10.2 50.4 62 3.3 37.9 0
01:44 1016 30 845 24.95 10.2 50.4 62 3.2 37.8 0
01:45 1016 30 845 24.95 10.2 50.4 62 3.2 37.8 0
01:46 1016 30 845 24.95 10.2 50.3 62 3.3 38 0
01:47 1016 30 845 24.95 10.2 50.3 62 3.4 38 0
01:48 1016 30 845 24.95 10.1 50.2 62 3.3 38 0
01:49 1016 30 845 24.95 10.1 50.2 62 3.3 37.9 0
01:50 1016 30 845 24.95 10.1 50.2 62 3.2 37.7 0
01:51 1016 30 845 24.95 10.2 50.4 61 3.2 37.7 0
01:52 1016 30 845 24.95 10.3 50.6 61 3.2 37.8 0
01:53 1016 30 845 24.95 10.4 50.8 61 3.3 37.9 0
01:54 1016 30 845 24.95 10.6 51 60 3.1 37.7 0
01:55 1016 30 845 24.95 10.7 51.3 60 3.3 38 0
01:56 1016 30 845 24.95 10.8 51.5 60 3.4 38.1 0
01:57 1016 30 845 24.95 11 51.8 59 3.3 38 0
01:58 1016 30 845 24.95 11.1 51.9 59 3.4 38.1 0
01:59 1016 30 845 24.95 11.1 52.1 59 3.4 38.1 0
02:00 1016 30 845 24.95 11.2 52.1 59 3.4 38.2 0
02:01 1016 30 845 24.95 11.3 52.3 58 3.4 38.1 0
02:02 1016 30 845 24.95 11.4 52.6 57 3.4 38.1 0
02:03 1016 30 845 24.95 11.6 52.8 57 3.4 38.2 0
02:04 1016 30 845 24.95 11.6 52.9 58 3.5 38.4 0
02:05 1016 30 845 24.95 11.6 53 57 3.5 38.3 0
02:06 1016 30 845 24.95 11.7 53 57 3.5 38.3 0
02:07 1016 30 845 24.95 11.8 53.2 57 3.5 38.2 0
02:08 1016 30 845 24.95 11.8 53.3 57 3.5 38.4 0
02:09 1016 30 845 24.95 11.8 53.2 57 3.5 38.3 0
02:10 1016 30 845 24.95 11.8 53.2 57 3.5 38.4 0
02:11 1016 30 845 24.95 11.7 53.1 57 3.5 38.4 0
02:12 1016 30 845 24.95 11.7 53.1 57 3.5 38.3 0
02:13 1015 29.97 845 24.95 11.7 53.1 57 3.5 38.3 0
02:14 1015 29.97 845 24.95 11.7 53.1 57 3.5 38.3 0
02:15 1015 29.97 845 24.95 11.7 53.1 57 3.5 38.3 0
02:16 1015 29.97 845 24.95 11.8 53.2 57 3.6 38.4 0
02:17 1015 29.97 845 24.95 11.8 53.2 57 3.6 38.5 0
02:18 1015 29.97 845 24.95 11.8 53.2 57 3.6 38.4 0
02:19 1015 29.97 845 24.95 11.8 53.2 56 3.5 38.2 0
02:20 1015 29.97 845 24.95 11.8 53.3 57 3.6 38.4 0
02:21 1015 29.97 845 24.95 11.8 53.2 57 3.6 38.5 0
02:22 1015 29.97 845 24.95 11.7 53.1 57 3.6 38.4 0
02:23 1015 29.97 845 24.95 11.7 53 57 3.5 38.4 0
02:24 1015 29.97 845 24.95 11.7 53.1 56 3.4 38.1 0
02:25 1015 29.97 845 24.95 11.9 53.4 56 3.5 38.4 0
02:26 1015 29.97 845 24.95 11.9 53.4 57 3.6 38.5 0
02:27 1015 29.97 845 24.95 11.8 53.2 57 3.6 38.4 0
02:28 1015 29.97 845 24.95 11.8 53.2 57 3.6 38.5 0
02:29 1015 29.97 845 24.95 11.8 53.2 57 3.5 38.4 0
02:30 1015 29.97 845 24.95 11.9 53.4 56 3.5 38.3 0
02:31 1015 29.97 844 24.92 12 53.5 56 3.6 38.4 0
02:32 1015 29.97 844 24.92 11.9 53.4 57 3.6 38.5 0
02:33 1015 29.97 844 24.92 11.9 53.3 57 3.6 38.5 0
02:34 1015 29.97 844 24.92 11.8 53.3 57 3.6 38.5 0
02:35 1015 29.97 844 24.92 11.9 53.4 56 3.4 38.2 0
02:36 1015 29.97 844 24.92 12.1 53.8 55 3.5 38.2 0
02:37 1015 29.97 844 24.92 12.2 53.9 56 3.6 38.6 0
02:38 1015 29.97 844 24.92 12 53.7 57 3.8 38.8 0
02:39 1015 29.97 844 24.92 11.7 53.1 58 3.8 38.8 0
02:40 1015 29.97 844 24.92 11.5 52.8 59 3.8 38.9 0
02:41 1015 29.97 844 24.92 11.4 52.4 59 3.8 38.8 0
02:42 1015 29.97 844 24.92 11.2 52.2 60 3.7 38.7 0
02:43 1015 29.97 844 24.92 11.2 52.1 60 3.8 38.9 0
02:44 1015 29.97 844 24.92 11.1 51.9 60 3.7 38.7 0
02:45 1015 29.97 844 24.92 11 51.8 60 3.7 38.7 0
02:46 1015 29.97 844 24.92 11.1 51.9 60 3.7 38.6 0
02:47 1015 29.97 844 24.92 11.1 51.9 60 3.7 38.6 0
02:48 1015 29.97 844 24.92 11 51.9 60 3.7 38.6 0
02:49 1015 29.97 844 24.92 11 51.8 60 3.7 38.6 0
02:50 1015 29.97 844 24.92 11 51.8 61 3.8 38.8 0
02:51 1015 29.97 844 24.92 10.9 51.7 61 3.8 38.9 0
02:52 1015 29.97 844 24.92 10.8 51.5 62 3.9 39 0
02:53 1015 29.97 844 24.92 10.7 51.3 62 3.8 38.9 0
02:54 1015 29.97 844 24.92 10.7 51.3 62 3.8 38.8 0
02:55 1015 29.97 844 24.92 10.7 51.3 62 3.7 38.7 0
02:56 1015 29.97 844 24.92 10.8 51.4 61 3.7 38.7 0
02:57 1015 29.97 844 24.92 10.9 51.5 61 3.7 38.7 0
02:58 1015 29.97 844 24.92 10.9 51.6 61 3.7 38.6 0
02:59 1015 29.97 844 24.92 10.9 51.7 61 3.7 38.7 0
03:00 1015 29.97 844 24.92 11 51.9 60 3.6 38.5 0
03:01 1015 29.97 844 24.92 11.3 52.3 59 3.6 38.5 0
03:02 1015 29.97 844 24.92 11.4 52.5 59 3.6 38.6 0
03:03 1015 29.97 844 24.92 11.5 52.7 59 3.7 38.7 0
03:04 1015 29.97 844 24.92 11.5 52.8 58 3.7 38.7 0
03:05 1015 29.97 844 24.92 11.5 52.8 59 3.8 38.8 0
03:06 1015 29.97 844 24.92 11.5 52.7 59 3.7 38.7 0
03:07 1015 29.97 844 24.92 11.5 52.6 59 3.7 38.7 0
03:08 1015 29.97 844 24.92 11.4 52.5 59 3.7 38.7 0
03:09 1015 29.97 844 24.92 11.3 52.3 59 3.7 38.7 0
03:10 1015 29.97 844 24.92 11.2 52.1 60 3.7 38.7 0
03:11 1015 29.97 844 24.92 11.1 51.9 60 3.6 38.5 0
03:12 1015 29.97 844 24.92 11 51.7 59 3.4 38.1 0
03:13 1015 29.97 844 24.92 10.9 51.6 60 3.4 38.2 0
03:14 1015 29.97 844 24.92 10.8 51.4 61 3.6 38.6 0
03:15 1015 29.97 844 24.92 10.6 51 62 3.8 38.8 0
03:16 1015 29.97 844 24.92 10.4 50.7 63 3.8 38.8 0
03:17 1015 29.97 844 24.92 10.3 50.5 61 3.2 37.8 0
03:18 1015 29.97 844 24.92 10.4 50.7 62 3.4 38.1 0
03:19 1015 29.97 844 24.92 10.4 50.7 62 3.4 38.2 0
03:20 1015 29.97 844 24.92 10.4 50.8 61 3.2 37.8 0
03:21 1015 29.97 844 24.92 10.4 50.8 62 3.4 38.2 0
03:22 1015 29.97 844 24.92 10.3 50.6 63 3.7 38.6 0
03:23 1015 29.97 844 24.92 10.2 50.4 64 3.7 38.7 0
03:24 1015 29.97 844 24.92 10.1 50.2 67 4.4 39.8 0
03:25 1015 29.97 844 24.92 9.8 49.7 67 4.1 39.4 0
03:26 1015 29.97 844 24.92 9.7 49.5 69 4.3 39.7 0
03:27 1014 29.94 844 24.92 9.7 49.4 70 4.4 39.9 0
03:28 1014 29.94 844 24.92 9.6 49.2 68 4 39.2 0
03:29 1014 29.94 844 24.92 9.5 49.1 68 4 39.2 0
03:30 1014 29.94 844 24.92 9.5 49.2 68 4 39.1 0
03:31 1014 29.94 844 24.92 9.5 49.2 68 3.9 39.1 0
03:32 1014 29.94 843 24.89 9.5 49.1 67 3.8 38.9 0
03:33 1014 29.94 843 24.89 9.6 49.2 65 3.3 38 0
03:34 1014 29.94 843 24.89 9.6 49.3 69 4.2 39.5 0
03:35 1014 29.94 843 24.89 9.5 49.1 70 4.3 39.8 0
03:36 1014 29.94 844 24.92 9.2 48.6 71 4.2 39.6 0
03:37 1014 29.94 843 24.89 9.1 48.3 71 4.1 39.4 0
03:38 1014 29.94 843 24.89 9 48.2 71 4.1 39.4 0
03:39 1014 29.94 843 24.89 9 48.1 72 4.3 39.7 0
03:40 1014 29.94 843 24.89 8.9 48 72 4 39.3 0
03:41 1014 29.94 843 24.89 8.9 48 72 4.1 39.4 0
03:42 1014 29.94 843 24.89 8.9 48 72 4.1 39.3 0
03:43 1014 29.94 843 24.89 8.9 48 72 4 39.3 0
03:44 1014 29.94 843 24.89 8.9 48 72 4.1 39.5 0
03:45 1014 29.94 843 24.89 8.8 47.8 73 4.2 39.6 0
03:46 1014 29.94 843 24.89 8.7 47.6 73 4.2 39.5 0
03:47 1014 29.94 843 24.89 8.7 47.6 73 4.2 39.5 0
03:48 1014 29.94 843 24.89 8.6 47.5 74 4.3 39.7 0
03:49 1014 29.94 843 24.89 8.5 47.2 75 4.3 39.7 0
03:50 1014 29.94 843 24.89 8.4 47.2 75 4.3 39.8 0
03:51 1014 29.94 843 24.89 8.3 47 76 4.4 39.9 0
03:52 1014 29.94 843 24.89 8.3 46.9 76 4.3 39.8 0
03:53 1014 29.94 843 24.89 8.2 46.8 75 4.1 39.4 0
03:54 1014 29.94 843 24.89 8.2 46.8 74 3.8 38.9 0
03:55 1014 29.94 843 24.89 8.4 47.1 72 3.7 38.6 0
03:56 1014 29.94 843 24.89 8.6 47.5 72 3.8 38.9 0
03:57 1014 29.94 843 24.89 8.7 47.7 72 4 39.1 0
03:58 1014 29.94 843 24.89 8.8 47.8 70 3.7 38.7 0
03:59 1014 29.94 843 24.89 9 48.1 69 3.6 38.5 0
04:00 1014 29.94 843 24.89 9.2 48.6 69 3.9 38.9 0
04:01 1014 29.94 843 24.89 9.2 48.6 70 4.1 39.3 0
04:02 1014 29.94 843 24.89 9.3 48.7 71 4.2 39.6 0
04:03 1014 29.94 843 24.89 9.2 48.5 71 4.2 39.6 0
04:04 1014 29.94 843 24.89 9.1 48.5 72 4.3 39.8 0
04:05 1014 29.94 843 24.89 9.1 48.4 70 4 39.2 0
04:06 1014 29.94 843 24.89 9.3 48.8 69 4 39.2 0
04:07 1014 29.94 843 24.89 9.6 49.3 67 3.9 39 0
04:08 1014 29.94 843 24.89 9.9 49.8 67 4.1 39.4 0
04:09 1014 29.94 843 24.89 10 50.1 67 4.2 39.5 0
04:10 1014 29.94 843 24.89 10.2 50.3 66 4.3 39.7 0
04:11 1014 29.94 843 24.89 10.4 50.6 66 4.3 39.8 0
04:12 1014 29.94 843 24.89 10.4 50.7 66 4.4 39.9 0
04:13 1014 29.94 843 24.89 10.4 50.7 66 4.4 39.9 0
04:14 1014 29.94 843 24.89 10.6 51 65 4.3 39.7 0
04:15 1014 29.94 843 24.89 10.7 51.2 65 4.3 39.8 0
04:16 1014 29.94 843 24.89 10.8 51.5 64 4.3 39.7 0
04:17 1014 29.94 843 24.89 11.1 51.9 63 4.3 39.7 0
04:18 1014 29.94 843 24.89 11.3 52.3 62 4.4 39.9 0
04:19 1014 29.94 843 24.89 11.4 52.6 62 4.4 40 0
04:20 1014 29.94 843 24.89 11.5 52.7 62 4.6 40.3 0
04:21 1014 29.94 843 24.89 11.5 52.7 63 4.7 40.5 0
04:22 1014 29.94 843 24.89 11.4 52.5 62 4.5 40 0
04:23 1014 29.94 843 24.89 11.5 52.7 61 4.3 39.7 0
04:24 1014 29.94 843 24.89 11.8 53.2 60 4.3 39.7 0
04:25 1014 29.94 843 24.89 11.9 53.4 60 4.5 40.1 0
04:26 1014 29.94 843 24.89 11.9 53.5 60 4.4 39.9 0
04:27 1014 29.94 843 24.89 11.9 53.3 60 4.4 39.9 0
04:28 1014 29.94 843 24.89 11.9 53.3 60 4.4 39.8 0
04:29 1014 29.94 843 24.89 11.8 53.2 61 4.5 40 0
04:30 1014 29.94 843 24.89 11.7 53.1 61 4.4 39.9 0
04:31 1014 29.94 843 24.89 11.7 53.1 61 4.4 39.9 0
04:32 1014 29.94 843 24.89 11.7 53 61 4.4 40 0
04:33 1014 29.94 843 24.89 11.6 52.9 61 4.4 39.8 0
04:34 1014 29.94 843 24.89 11.6 52.9 61 4.3 39.7 0
04:35 1014 29.94 843 24.89 11.6 53 61 4.3 39.8 0
04:36 1014 29.94 843 24.89 11.7 53 61 4.5 40.1 0
04:37 1014 29.94 843 24.89 11.5 52.7 62 4.4 40 0
04:38 1014 29.94 843 24.89 11.4 52.5 62 4.4 39.9 0
04:39 1014 29.94 843 24.89 11.4 52.6 61 4.3 39.7 0
04:40 1014 29.94 843 24.89 11.5 52.7 61 4.2 39.6 0
04:41 1014 29.94 843 24.89 11.6 52.9 61 4.3 39.7 0
04:42 1014 29.94 843 24.89 11.6 53 60 4.2 39.6 0
04:43 1014 29.94 843 24.89 11.7 53.1 60 4.1 39.5 0
04:44 1014 29.94 843 24.89 11.9 53.4 59 4.2 39.6 0
04:45 1014 29.94 843 24.89 11.9 53.5 59 4.2 39.6 0
04:46 1014 29.94 843 24.89 11.9 53.4 59 4.2 39.6 0
04:47 1014 29.94 843 24.89 11.9 53.4 59 4.2 39.5 0
04:48 1014 29.94 843 24.89 11.9 53.4 59 4.2 39.5 0
04:49 1014 29.94 843 24.89 11.9 53.5 59 4.2 39.5 0
04:50 1014 29.94 843 24.89 11.9 53.4 61 4.6 40.3 0
04:51 1014 29.94 843 24.89 11.5 52.6 64 4.8 40.7 0
04:52 1014 29.94 843 24.89 11 51.7 65 4.7 40.5 0
04:53 1014 29.94 843 24.89 10.6 51.1 66 4.6 40.2 0
04:54 1014 29.94 843 24.89 10.4 50.7 67 4.6 40.2 0
04:55 1014 29.94 843 24.89 10.2 50.4 67 4.5 40 0
04:56 1014 29.94 843 24.89 10.1 50.2 67 4.3 39.8 0
04:57 1014 29.94 843 24.89 10.1 50.2 66 4.2 39.6 0
04:58 1014 29.94 843 24.89 10.3 50.5 66 4.2 39.5 0
04:59 1014 29.94 843 24.89 10.4 50.7 66 4.3 39.7 0
05:00 1014 29.94 843 24.89 10.4 50.7 65 4.2 39.6 0
05:01 1014 29.94 843 24.89 10.4 50.8 66 4.3 39.8 0
05:02 1014 29.94 843 24.89 10.3 50.5 67 4.4 39.9 0
05:03 1014 29.94 843 24.89 10.1 50.1 67 4.2 39.6 0
05:04 1014 29.94 843 24.89 10.1 50.1 65 3.8 38.8 0
05:05 1014 29.94 843 24.89 10.2 50.4 64 3.6 38.6 0
05:06 1014 29.94 843 24.89 10.5 50.8 63 3.8 38.9 0
05:07 1014 29.94 843 24.89 10.6 51.1 63 4 39.2 0
05:08 1014 29.94 843 24.89 10.6 51.1 64 4.1 39.4 0
05:09 1014 29.94 843 24.89 10.3 50.5 66 4.2 39.6 0
05:10 1014 29.94 843 24.89 9.8 49.7 67 4.1 39.4 0
05:11 1014 29.94 843 24.89 9.5 49.1 69 4 39.3 0
05:12 1014 29.94 843 24.89 9.2 48.5 70 3.9 39 0
05:13 1014 29.94 843 24.89 8.9 48.1 70 3.9 39 0
05:14 1014 29.94 843 24.89 8.7 47.6 71 3.8 38.9 0
05:15 1014 29.94 843 24.89 8.6 47.4 72 3.8 38.9 0
05:16 1014 29.94 843 24.89 8.4 47.1 72 3.8 38.8 0
05:17 1014 29.94 843 24.89 8.3 46.9 73 3.7 38.6 0
05:18 1014 29.94 843 24.89 8.2 46.8 72 3.6 38.4 0
05:19 1014 29.94 843 24.89 8.2 46.7 72 3.5 38.3 0
05:20 1014 29.94 843 24.89 8.2 46.7 72 3.5 38.3 0
05:21 1014 29.94 843 24.89 8.2 46.7 72 3.5 38.2 0
05:22 1014 29.94 843 24.89 8.2 46.7 72 3.4 38.1 0
05:23 1014 29.94 843 24.89 8.2 46.8 71 3.4 38.1 0
05:24 1014 29.94 843 24.89 8.3 46.9 71 3.3 38 0
05:25 1014 29.94 843 24.89 8.3 46.9 71 3.4 38.1 0
05:26 1014 29.94 843 24.89 8.3 47 71 3.4 38.2 0
05:27 1014 29.94 843 24.89 8.3 46.9 71 3.3 38 0
05:28 1014 29.94 843 24.89 8.3 47 71 3.3 38 0
05:29 1014 29.94 843 24.89 8.4 47 71 3.4 38.2 0
05:30 1014 29.94 843 24.89 8.4 47.1 71 3.4 38.2 0
05:31 1014 29.94 843 24.89 8.4 47 71 3.4 38.1 0
05:32 1014 29.94 843 24.89 8.4 47.1 71 3.4 38.1 0
05:33 1014 29.94 843 24.89 8.4 47.1 72 3.6 38.5 0
05:34 1014 29.94 843 24.89 8.2 46.8 73 3.6 38.5 0
05:35 1014 29.94 843 24.89 8 46.4 73 3.5 38.4 0
05:36 1014 29.94 843 24.89 7.9 46.2 73 3.5 38.2 0
05:37 1014 29.94 843 24.89 7.8 46.1 74 3.5 38.4 0
05:38 1014 29.94 843 24.89 7.6 45.8 75 3.5 38.4 0
05:39 1014 29.94 843 24.89 7.5 45.5 75 3.4 38.2 0
05:40 1014 29.94 843 24.89 7.6 45.6 75 3.4 38.1 0
05:41 1014 29.94 843 24.89 7.7 45.8 74 3.4 38.1 0
05:42 1014 29.94 843 24.89 7.8 46 74 3.5 38.3 0
05:43 1014 29.94 843 24.89 7.7 45.8 75 3.5 38.3 0
05:44 1014 29.94 843 24.89 7.6 45.6 75 3.5 38.3 0
05:45 1014 29.94 843 24.89 7.4 45.4 75 3.3 37.9 0
05:46 1014 29.94 843 24.89 7.4 45.3 75 3.2 37.8 0
05:47 1014 29.94 843 24.89 7.4 45.3 75 3.2 37.7 0
05:48 1014 29.94 843 24.89 7.4 45.3 75 3.2 37.7 0
05:49 1014 29.94 843 24.89 7.3 45.1 75 3.1 37.5 0
05:50 1014 29.94 843 24.89 7.2 45 75 3 37.4 0
05:51 1014 29.94 843 24.89 7.3 45.1 74 3 37.3 0
05:52 1014 29.94 843 24.89 7.3 45.2 74 3 37.5 0
05:53 1014 29.94 843 24.89 7.3 45.1 74 3 37.5 0
05:54 1014 29.94 843 24.89 7.2 45 75 3 37.4 0
05:55 1014 29.94 843 24.89 7.2 44.9 75 3 37.4 0
05:56 1014 29.94 843 24.89 7.1 44.8 75 3 37.5 0
05:57 1014 29.94 843 24.89 7.1 44.8 75 3 37.4 0
05:58 1014 29.94 843 24.89 7.2 44.9 75 3.1 37.5 0
05:59 1014 29.94 843 24.89 7.2 44.9 75 3.1 37.6 0
06:00 1014 29.94 843 24.89 7.2 45 75 3.1 37.6 0
06:01 1014 29.94 843 24.89 7.2 45 75 3.2 37.7 0
06:02 1014 29.94 843 24.89 7.1 44.9 76 3.2 37.7 0
06:03 1014 29.94 843 24.89 7.1 44.7 76 3.1 37.6 0
06:04 1014 29.94 843 24.89 7 44.6 76 3.1 37.6 0
06:05 1014 29.94 843 24.89 6.9 44.5 76 3.1 37.5 0
06:06 1014 29.94 843 24.89 6.9 44.4 76 3 37.4 0
06:07 1014 29.94 843 24.89 6.9 44.5 76 3 37.4 0
06:08 1014 29.94 843 24.89 7 44.6 76 3 37.4 0
06:09 1014 29.94 843 24.89 7 44.7 76 3 37.4 0
06:10 1014 29.94 843 24.89 7 44.6 75 3 37.4 0
06:11 1014 29.94 843 24.89 7 44.7 75 3 37.4 0
06:12 1014 29.94 843 24.89 7 44.7 76 3 37.4 0
06:13 1014 29.94 843 24.89 7.1 44.7 75 3 37.4 0
06:14 1014 29.94 843 24.89 7.1 44.8 75 3 37.3 0
06:15 1014 29.94 843 24.89 7.2 44.9 75 2.9 37.3 0
06:16 1014 29.94 843 24.89 7.2 45 74 2.9 37.2 0
06:17 1014 29.94 843 24.89 7.3 45.1 74 2.9 37.3 0
06:18 1014 29.94 843 24.89 7.3 45.2 73 2.9 37.2 0
06:19 1014 29.94 843 24.89 7.4 45.2 73 2.9 37.1 0
06:20 1014 29.94 843 24.89 7.4 45.4 72 2.7 36.8 0
06:21 1014 29.94 843 24.89 7 44.7 74 2.7 36.9 0
06:22 1014 29.94 843 24.89 6.7 44.1 76 2.7 36.9 0
06:23 1014 29.94 843 24.89 6.4 43.6 77 2.8 37 0
06:24 1014 29.94 843 24.89 6.4 43.6 77 2.7 36.9 0
06:25 1014 29.94 843 24.89 6.4 43.5 77 2.7 36.9 0
06:26 1014 29.94 843 24.89 6.3 43.3 78 2.7 36.9 0
06:27 1014 29.94 843 24.89 6.1 43 79 2.7 36.8 0
06:28 1014 29.94 843 24.89 6 42.8 79 2.7 36.8 0
06:29 1014 29.94 843 24.89 6 42.7 79 2.7 36.8 0
06:30 1014 29.94 843 24.89 5.9 42.7 80 2.7 36.8 0
06:31 1013 29.91 843 24.89 5.8 42.5 80 2.6 36.7 0
06:32 1013 29.91 843 24.89 5.7 42.3 81 2.7 36.8 0
06:33 1013 29.91 843 24.89 5.8 42.4 81 2.7 36.8 0
06:34 1013 29.91 843 24.89 5.9 42.7 80 2.7 36.8 0
06:35 1013 29.91 843 24.89 6 42.8 79 2.6 36.7 0
06:36 1013 29.91 843 24.89 6 42.7 79 2.6 36.7 0
06:37 1013 29.91 843 24.89 5.8 42.5 79 2.5 36.5 0
06:38 1013 29.91 843 24.89 5.7 42.2 80 2.6 36.6 0
06:39 1013 29.91 843 24.89 5.7 42.2 81 2.7 36.8 0
06:40 1013 29.91 843 24.89 6 42.9 78 2.5 36.5 0
06:41 1013 29.91 843 24.89 5.9 42.7 79 2.5 36.5 0
06:42 1013 29.91 843 24.89 5.7 42.3 80 2.6 36.7 0
06:43 1013 29.91 843 24.89 5.7 42.2 80 2.5 36.5 0
06:44 1013 29.91 843 24.89 5.9 42.6 79 2.5 36.5 0
06:45 1013 29.91 843 24.89 6.2 43.1 78 2.7 36.8 0
06:46 1013 29.91 843 24.89 6.3 43.3 77 2.6 36.7 0
06:47 1013 29.91 843 24.89 6.2 43.2 77 2.4 36.3 0
06:48 1013 29.91 843 24.89 6 42.8 77 2.4 36.2 0
06:49 1013 29.91 843 24.89 5.9 42.6 79 2.6 36.6 0
06:50 1013 29.91 843 24.89 6 42.8 78 2.5 36.5 0
06:51 1013 29.91 843 24.89 6.2 43.1 78 2.6 36.7 0
06:52 1013 29.91 843 24.89 6.4 43.5 75 2.3 36.2 0
06:53 1013 29.91 843 24.89 6.5 43.6 75 2.3 36.1 0
06:54 1013 29.91 843 24.89 6.2 43.1 78 2.6 36.7 0
06:55 1013 29.91 843 24.89 6.6 43.8 76 2.6 36.8 0
06:56 1014 29.94 843 24.89 7.1 44.8 73 2.7 36.9 0
06:57 1014 29.94 843 24.89 7.3 45.1 72 2.6 36.7 0
06:58 1014 29.94 843 24.89 6.9 44.4 74 2.5 36.5 0
06:59 1014 29.94 843 24.89 6.6 43.9 75 2.5 36.5 0
07:00 1014 29.94 843 24.89 6.4 43.5 77 2.6 36.7 0
07:01 1014 29.94 843 24.89 6.2 43.2 78 2.6 36.7 0
07:02 1013 29.91 843 24.89 6.2 43.2 78 2.7 36.8 0
07:03 1013 29.91 843 24.89 6.2 43.2 78 2.7 36.9 0
07:04 1013 29.91 843 24.89 6.4 43.6 78 2.8 37.1 0
07:05 1013 29.91 843 24.89 6.8 44.2 75 2.7 36.8 0
07:06 1013 29.91 843 24.89 7.2 45 72 2.6 36.6 0
07:07 1013 29.91 843 24.89 7.3 45.1 73 2.9 37.2 0
07:08 1013 29.91 843 24.89 7.5 45.4 73 2.9 37.2 0
07:09 1013 29.91 843 24.89 7.6 45.6 72 2.9 37.2 0
07:10 1013 29.91 843 24.89 7.6 45.8 72 2.9 37.3 0
07:11 1014 29.94 843 24.89 7.7 45.8 72 3 37.4 0
07:12 1014 29.94 843 24.89 7.5 45.5 73 3 37.4 0
07:13 1014 29.94 843 24.89 7.2 45 74 3 37.4 0
07:14 1014 29.94 843 24.89 6.9 44.5 76 3 37.4 0
07:15 1014 29.94 843 24.89 6.7 44.1 76 2.8 37.1 0
07:16 1014 29.94 843 24.89 6.7 44.1 76 2.9 37.2 0
07:17 1014 29.94 843 24.89 6.7 44.1 77 2.9 37.2 0
07:18 1014 29.94 843 24.89 6.6 43.9 77 2.9 37.2 0
07:19 1014 29.94 843 24.89 6.5 43.7 78 2.9 37.2 0
07:20 1014 29.94 843 24.89 6.3 43.4 79 3 37.4 0
07:21 1014 29.94 843 24.89 6.2 43.1 80 3 37.4 0
07:22 1014 29.94 843 24.89 6.2 43.1 80 3 37.4 0
07:23 1014 29.94 843 24.89 6.2 43.2 80 3.1 37.5 0
07:24 1014 29.94 843 24.89 6.3 43.3 80 3.1 37.5 0
07:25 1014 29.94 843 24.89 6.3 43.3 80 3.1 37.5 0
07:26 1014 29.94 843 24.89 6.4 43.6 79 3.1 37.6 0
07:27 1014 29.94 843 24.89 6.5 43.7 79 3.1 37.6 0
07:28 1014 29.94 843 24.89 6.5 43.7 79 3.2 37.7 0
07:29 1014 29.94 843 24.89 6.5 43.6 79 3.1 37.7 0
07:30 1014 29.94 843 24.89 6.4 43.5 79 3.1 37.5 0
07:31 1014 29.94 843 24.89 6.4 43.5 80 3.2 37.7 0
07:32 1014 29.94 843 24.89 6.3 43.3 81 3.2 37.8 0
07:33 1014 29.94 843 24.89 6.3 43.3 81 3.3 37.9 0
07:34 1014 29.94 843 24.89 6.3 43.3 81 3.2 37.8 0
07:35 1014 29.94 843 24.89 6.4 43.5 80 3.3 37.9 0
07:36 1014 29.94 843 24.89 6.5 43.7 80 3.4 38.1 0
07:37 1014 29.94 843 24.89 6.6 43.9 80 3.5 38.2 0
07:38 1014 29.94 843 24.89 6.9 44.4 79 3.5 38.4 0
07:39 1014 29.94 843 24.89 7.2 45 78 3.7 38.7 0
07:40 1014 29.94 843 24.89 7.5 45.4 77 3.7 38.7 0
07:41 1014 29.94 843 24.89 7.7 45.8 76 3.8 38.8 0
07:42 1014 29.94 843 24.89 7.8 46 76 3.8 38.8 0
07:43 1013 29.91 843 24.89 7.8 46.1 75 3.8 38.8 0
07:44 1013 29.91 843 24.89 7.9 46.1 76 3.8 38.9 0
07:45 1013 29.91 843 24.89 7.9 46.1 76 3.9 39.1 0
07:46 1013 29.91 843 24.89 7.8 46 77 4 39.2 0
07:47 1013 29.91 843 24.89 7.8 46 77 4 39.2 0
07:48 1013 29.91 843 24.89 7.7 45.9 77 4 39.2 0
07:49 1013 29.91 843 24.89 7.7 45.8 77 3.9 39 0
07:50 1013 29.91 843 24.89 7.7 45.8 77 4 39.1 0
07:51 1013 29.91 842 24.86 7.7 45.8 77 4 39.1 0
07:52 1013 29.91 842 24.86 7.7 45.8 78 4 39.3 0
07:53 1013 29.91 842 24.86 7.7 45.8 78 4.1 39.4 0
07:54 1013 29.91 842 24.86 7.7 45.8 78 4.1 39.4 0
07:55 1013 29.91 842 24.86 7.7 45.8 78 4.2 39.5 0
07:56 1013 29.91 842 24.86 7.7 45.8 78 4.2 39.5 0
07:57 1013 29.91 842 24.86 7.7 45.8 79 4.2 39.6 0
07:58 1013 29.91 842 24.86 7.7 45.8 79 4.3 39.8 0
07:59 1013 29.91 842 24.86 7.7 45.8 79 4.3 39.8 0
08:00 1013 29.91 842 24.86 7.7 45.8 79 4.4 39.9 0
08:01 1013 29.91 842 24.86 7.7 45.8 78 4.1 39.5 0
08:02 1013 29.91 842 24.86 7.8 46 78 4.1 39.4 0
08:03 1013 29.91 842 24.86 7.9 46.2 77 4.2 39.5 0
08:04 1013 29.91 842 24.86 8 46.4 77 4.2 39.6 0
08:05 1013 29.91 842 24.86 8.1 46.5 78 4.4 40 0
08:06 1013 29.91 842 24.86 8.1 46.6 78 4.6 40.3 0
08:07 1013 29.91 842 24.86 8.1 46.5 80 4.8 40.6 0
08:08 1013 29.91 842 24.86 8.1 46.6 80 4.9 40.8 0
08:09 1013 29.91 842 24.86 8.1 46.6 80 4.9 40.8 0
08:10 1013 29.91 842 24.86 8.1 46.6 80 4.8 40.7 0
08:11 1013 29.91 842 24.86 8.2 46.7 77 4.4 40 0
08:12 1013 29.91 842 24.86 8.3 46.9 77 4.5 40 0
08:13 1013 29.91 842 24.86 8.4 47.1 76 4.5 40.1 0
08:14 1013 29.91 842 24.86 8.5 47.3 75 4.3 39.8 0
08:15 1013 29.91 842 24.86 8.5 47.4 75 4.3 39.7 0
08:16 1013 29.91 842 24.86 8.6 47.5 75 4.4 40 0
08:17 1013 29.91 842 24.86 8.6 47.5 74 4.3 39.7 0
08:18 1013 29.91 842 24.86 8.7 47.6 74 4.4 39.9 0
08:19 1013 29.91 842 24.86 8.7 47.6 74 4.4 39.9 0
08:20 1013 29.91 842 24.86 8.7 47.7 74 4.4 39.9 0
08:21 1013 29.91 842 24.86 8.7 47.7 75 4.5 40.2 0
08:22 1013 29.91 842 24.86 8.8 47.8 75 4.6 40.3 0
08:23 1013 29.91 842 24.86 8.7 47.7 75 4.6 40.3 0
08:24 1013 29.91 842 24.86 8.8 47.8 74 4.5 40.1 0
08:25 1013 29.91 842 24.86 8.8 47.8 75 4.5 40.1 0
08:26 1013 29.91 842 24.86 8.8 47.9 74 4.4 40 0
08:27 1013 29.91 842 24.86 8.9 48 73 4.3 39.7 0
08:28 1013 29.91 842 24.86 9 48.1 73 4.3 39.8 0
08:29 1013 29.91 842 24.86 9.1 48.3 73 4.5 40.1 0
08:30 1013 29.91 842 24.86 9.2 48.5 73 4.5 40.2 0
08:31 1013 29.91 842 24.86 9.2 48.6 73 4.6 40.3 0
08:32 1013 29.91 842 24.86 9.3 48.8 72 4.6 40.3 0
08:33 1013 29.91 842 24.86 9.4 48.9 71 4.5 40.1 0
08:34 1013 29.91 842 24.86 9.5 49.1 71 4.5 40.2 0
08:35 1013 29.91 842 24.86 9.6 49.2 71 4.5 40.2 0
08:36 1013 29.91 842 24.86 9.7 49.4 71 4.6 40.4 0
08:37 1013 29.91 842 24.86 9.7 49.5 71 4.7 40.4 0
08:38 1013 29.91 842 24.86 9.8 49.6 70 4.5 40.2 0
08:39 1013 29.91 842 24.86 9.8 49.7 70 4.6 40.4 0
08:40 1013 29.91 842 24.86 9.9 49.8 69 4.4 40 0
08:41 1013 29.91 842 24.86 10 49.9 69 4.5 40.2 0
08:42 1013 29.91 842 24.86 10 50.1 69 4.6 40.3 0
08:43 1013 29.91 842 24.86 10.1 50.1 68 4.5 40.1 0
08:44 1013 29.91 842 24.86 10.1 50.2 68 4.5 40.1 0
08:45 1013 29.91 842 24.86 10.2 50.4 68 4.6 40.3 0
08:46 1013 29.91 842 24.86 10.2 50.4 69 4.8 40.6 0
08:47 1013 29.91 842 24.86 10.2 50.4 69 4.9 40.8 0
08:48 1013 29.91 842 24.86 10.2 50.3 70 5 41 0
08:49 1013 29.91 842 24.86 10.2 50.3 70 5 40.9 0
08:50 1013 29.91 842 24.86 10.2 50.3 70 5.1 41.1 0
08:51 1013 29.91 842 24.86 10.2 50.3 70 5.1 41.1 0
08:52 1013 29.91 842 24.86 10.2 50.3 70 5 41 0
08:53 1013 29.91 842 24.86 10.3 50.5 70 5.1 41.1 0
08:54 1013 29.91 842 24.86 10.2 50.4 70 5.1 41.2 0
08:55 1013 29.91 842 24.86 10.3 50.6 70 5.2 41.3 0
08:56 1013 29.91 842 24.86 10.3 50.6 68 4.7 40.5 0
08:57 1013 29.91 842 24.86 10.4 50.7 69 4.9 40.9 0
08:58 1013 29.91 842 24.86 10.4 50.8 67 4.6 40.3 0
08:59 1013 29.91 842 24.86 10.6 51 67 4.7 40.5 0
09:00 1013 29.91 842 24.86 10.6 51.1 66 4.5 40 0
09:01 1013 29.91 842 24.86 10.7 51.3 66 4.7 40.4 0
09:02 1013 29.91 842 24.86 10.8 51.5 66 4.7 40.5 0
09:03 1013 29.91 842 24.86 10.9 51.5 66 4.8 40.7 0
09:04 1013 29.91 842 24.86 10.9 51.7 65 4.8 40.6 0
09:05 1013 29.91 842 24.86 11 51.8 66 4.8 40.7 0
09:06 1013 29.91 842 24.86 11 51.9 65 4.7 40.5 0
09:07 1013 29.91 842 24.86 11.1 51.9 66 5 41 0
09:08 1013 29.91 842 24.86 11.1 51.9 66 5 41 0
09:09 1013 29.91 842 24.86 11.1 52 66 5 41 0
09:10 1013 29.91 842 24.86 11.1 51.9 66 5 41.1 0
09:11 1012 29.88 842 24.86 11.1 52 66 5.1 41.2 0
09:12 1012 29.88 842 24.86 11.1 52 67 5.2 41.4 0
09:13 1012 29.88 842 24.86 11.1 52 65 4.9 40.8 0
09:14 1012 29.88 842 24.86 11.1 52 65 4.8 40.7 0
09:15 1012 29.88 842 24.86 11.2 52.1 64 4.7 40.4 0
09:16 1012 29.88 842 24.86 11.2 52.2 64 4.7 40.4 0
09:17 1012 29.88 842 24.86 11.3 52.4 64 4.8 40.6 0
09:18 1012 29.88 842 24.86 11.4 52.5 63 4.7 40.4 0
09:19 1012 29.88 842 24.86 11.4 52.5 64 4.8 40.6 0
09:20 1012 29.88 842 24.86 11.4 52.6 63 4.8 40.6 0
09:21 1012 29.88 842 24.86 11.5 52.7 63 4.8 40.7 0
09:22 1012 29.88 842 24.86 11.5 52.7 63 4.8 40.6 0
09:23 1012 29.88 842 24.86 11.6 52.8 62 4.7 40.4 0
09:24 1012 29.88 842 24.86 11.6 52.9 62 4.5 40.2 0
09:25 1012 29.88 842 24.86 11.7 53 62 4.8 40.6 0
09:26 1012 29.88 842 24.86 11.7 53.1 61 4.6 40.2 0
09:27 1012 29.88 842 24.86 11.8 53.3 61 4.7 40.4 0
09:28 1012 29.88 842 24.86 11.9 53.4 60 4.4 39.9 0
09:29 1012 29.88 842 24.86 12 53.6 62 4.9 40.8 0
09:30 1012 29.88 841 24.83 12.1 53.7 61 4.9 40.8 0
09:31 1012 29.88 841 24.83 12.1 53.8 62 5.2 41.3 0
09:32 1012 29.88 841 24.83 12.2 54 59 4.6 40.3 0
09:33 1012 29.88 841 24.83 12.3 54.2 61 5 40.9 0
09:34 1012 29.88 841 24.83 12.5 54.4 59 4.8 40.7 0
09:35 1012 29.88 841 24.83 12.6 54.7 59 5 41 0
09:36 1012 29.88 841 24.83 12.8 55 59 4.9 40.9 0
09:37 1012 29.88 841 24.83 13 55.3 58 5 41 0
09:38 1012 29.88 841 24.83 13.2 55.7 59 5.4 41.7 0
09:39 1012 29.88 841 24.83 13.4 56 55 4.5 40.2 0
09:40 1012 29.88 841 24.83 13.4 56.1 55 4.7 40.4 0
09:41 1012 29.88 841 24.83 13.4 56 56 4.7 40.5 0
09:42 1012 29.88 841 24.83 13.4 56.1 58 5.3 41.5 0
09:43 1012 29.88 841 24.83 13.4 56.2 56 4.8 40.7 0
09:44 1012 29.88 841 24.83 13.4 56.2 56 4.9 40.9 0
09:45 1012 29.88 841 24.83 13.5 56.2 56 5 41 0
09:46 1012 29.88 841 24.83 13.5 56.4 57 5.3 41.5 0
09:47 1012 29.88 841 24.83 13.6 56.5 54 4.6 40.2 0
09:48 1012 29.88 841 24.83 13.5 56.3 55 4.8 40.6 0
09:49 1012 29.88 841 24.83 13.5 56.3 54 4.6 40.2 0
09:50 1012 29.88 841 24.83 13.5 56.3 54 4.5 40.1 0
09:51 1012 29.88 841 24.83 13.5 56.2 55 4.6 40.3 0
09:52 1012 29.88 841 24.83 13.5 56.2 56 4.8 40.7 0
09:53 1012 29.88 841 24.83 13.4 56.2 55 4.7 40.4 0
09:54 1012 29.88 841 24.83 13.4 56.1 55 4.5 40.1 0
09:55 1012 29.88 841 24.83 13.4 56.1 54 4.4 39.9 0
09:56 1012 29.88 841 24.83 13.3 56 55 4.5 40.1 0
09:57 1012 29.88 841 24.83 13.3 55.9 55 4.4 39.9 0
09:58 1012 29.88 841 24.83 13.3 55.9 54 4.2 39.6 0
09:59 1012 29.88 841 24.83 13.3 55.9 54 4.2 39.6 0
10:00 1012 29.88 841 24.83 13.3 55.9 54 4.2 39.5 0
10:01 1012 29.88 841 24.83 13.2 55.8 55 4.4 39.8 0
10:02 1012 29.88 841 24.83 13.3 55.9 54 4.3 39.8 0
10:03 1012 29.88 841 24.83 13.2 55.8 54 4.2 39.5 0
10:04 1012 29.88 841 24.83 13.3 55.9 55 4.5 40 0
10:05 1012 29.88 841 24.83 13.3 55.9 54 4.1 39.4 0
10:06 1012 29.88 841 24.83 13.3 55.9 54 4.2 39.5 0
10:07 1012 29.88 841 24.83 13.3 56 55 4.5 40.1 0
10:08 1012 29.88 841 24.83 13.3 56 54 4.3 39.7 0
10:09 1012 29.88 841 24.83 13.4 56 55 4.5 40.1 0
10:10 1012 29.88 841 24.83 13.4 56.1 54 4.2 39.6 0
10:11 1012 29.88 841 24.83 13.5 56.2 53 4.3 39.7 0
10:12 1012 29.88 841 24.83 13.5 56.3 54 4.3 39.8 0
10:13 1012 29.88 841 24.83 13.6 56.5 54 4.4 39.9 0
10:14 1012 29.88 841 24.83 13.6 56.5 53 4.4 39.9 0
10:15 1012 29.88 841 24.83 13.7 56.7 52 4.1 39.4 0
10:16 1012 29.88 841 24.83 13.8 56.8 52 4.2 39.6 0
10:17 1012 29.88 841 24.83 13.9 56.9 53 4.4 40 0
10:18 1012 29.88 841 24.83 13.9 57 52 4.4 39.9 0
10:19 1012 29.88 841 24.83 13.9 57.1 53 4.6 40.3 0
10:20 1012 29.88 841 24.83 14 57.2 53 4.7 40.5 0
10:21 1012 29.88 841 24.83 14.1 57.4 52 4.5 40.1 0
10:22 1012 29.88 841 24.83 14.3 57.7 51 4.2 39.6 0
10:23 1011 29.85 841 24.83 14.4 57.9 51 4.5 40 0
10:24 1011 29.85 841 24.83 14.4 57.9 51 4.6 40.3 0
10:25 1011 29.85 841 24.83 14.5 58 54 5.3 41.5 0
10:26 1011 29.85 841 24.83 14.4 57.9 56 5.9 42.5 0
10:27 1011 29.85 841 24.83 14.1 57.4 57 5.8 42.5 0
10:28 1011 29.85 841 24.83 13.9 56.9 60 6.3 43.3 0
10:29 1011 29.85 841 24.83 13.8 56.8 60 6.2 43.2 0
10:30 1012 29.88 841 24.83 13.9 56.9 59 6.2 43.1 0
10:31 1012 29.88 841 24.83 14.1 57.3 58 6.1 42.9 0
10:32 1011 29.85 841 24.83 14.1 57.5 60 6.6 43.8 0
10:33 1011 29.85 841 24.83 14.1 57.3 59 6.3 43.4 0
10:34 1011 29.85 841 24.83 14 57.1 61 6.7 44 0
10:35 1011 29.85 841 24.83 14 57.2 58 6 42.9 0
10:36 1011 29.85 841 24.83 14.1 57.3 57 5.8 42.4 0
10:37 1011 29.85 841 24.83 14 57.1 60 6.4 43.4 0
10:38 1011 29.85 841 24.83 13.9 57 59 6 42.8 0
10:39 1011 29.85 841 24.83 13.8 56.9 58 5.7 42.2 0
10:40 1011 29.85 841 24.83 13.7 56.6 61 6.3 43.4 0
10:41 1011 29.85 841 24.83 13.7 56.7 58 5.8 42.4 0
10:42 1011 29.85 841 24.83 13.7 56.6 59 6 42.7 0
10:43 1011 29.85 841 24.83 13.7 56.6 58 5.7 42.2 0
10:44 1011 29.85 841 24.83 13.8 56.8 58 5.6 42.2 0
10:45 1011 29.85 841 24.83 13.8 56.9 59 6.1 43 0
10:46 1011 29.85 841 24.83 13.8 56.9 57 5.4 41.8 0
10:47 1011 29.85 841 24.83 13.9 57 55 5.2 41.3 0
10:48 1011 29.85 841 24.83 13.9 57 55 5 41 0
10:49 1011 29.85 841 24.83 14 57.1 55 5.1 41.2 0
10:50 1011 29.85 841 24.83 13.9 57.1 53 4.6 40.2 0
10:51 1011 29.85 841 24.83 13.9 57 55 5.1 41.1 0
10:52 1011 29.85 840 24.81 13.8 56.9 55 5 41 0
10:53 1011 29.85 840 24.81 13.8 56.9 55 4.9 40.9 0
10:54 1011 29.85 840 24.81 13.8 56.8 56 5.2 41.3 0
10:55 1011 29.85 840 24.81 13.8 56.9 56 5.4 41.7 0
10:56 1011 29.85 840 24.81 13.9 57 55 5.1 41.1 0
10:57 1011 29.85 840 24.81 13.9 57 56 5.4 41.7 0
10:58 1011 29.85 840 24.81 13.8 56.9 56 5.4 41.7 0
10:59 1011 29.85 840 24.81 13.8 56.9 55 5.1 41.3 0
11:00 1011 29.85 840 24.81 13.9 56.9 55 5 41 0
11:01 1011 29.85 840 24.81 13.7 56.7 56 5.2 41.3 0
11:02 1011 29.85 840 24.81 13.7 56.7 56 5.3 41.5 0
11:03 1011 29.85 840 24.81 13.6 56.6 56 5.2 41.3 0
11:04 1011 29.85 840 24.81 13.6 56.5 56 5 40.9 0
11:05 1011 29.85 840 24.81 13.6 56.4 55 4.8 40.7 0
11:06 1011 29.85 840 24.81 13.5 56.3 56 4.9 40.8 0
11:07 1011 29.85 840 24.81 13.5 56.3 56 4.9 40.9 0
11:08 1011 29.85 840 24.81 13.5 56.3 55 4.8 40.6 0
11:09 1011 29.85 840 24.81 13.5 56.3 57 5.1 41.2 0
11:10 1011 29.85 840 24.81 13.5 56.3 54 4.5 40.2 0
11:11 1011 29.85 840 24.81 13.4 56.2 55 4.6 40.4 0
11:12 1011 29.85 840 24.81 13.4 56.1 55 4.7 40.5 0
11:13 1011 29.85 840 24.81 13.4 56.1 56 5 41 0
11:14 1011 29.85 840 24.81 13.4 56.1 57 5 41 0
11:15 1011 29.85 840 24.81 13.4 56.1 56 4.8 40.6 0
11:16 1011 29.85 840 24.81 13.4 56.1 57 5 41.1 0
11:17 1011 29.85 840 24.81 13.4 56 57 5 41 0
11:18 1011 29.85 840 24.81 13.4 56.1 57 5.1 41.2 0
11:19 1011 29.85 840 24.81 13.5 56.2 58 5.4 41.7 0
11:20 1011 29.85 840 24.81 13.5 56.3 58 5.5 42 0
11:21 1011 29.85 840 24.81 13.6 56.5 57 5.4 41.8 0
11:22 1011 29.85 840 24.81 13.6 56.5 57 5.4 41.7 0
11:23 1011 29.85 840 24.81 13.6 56.5 55 4.9 40.8 0
11:24 1011 29.85 840 24.81 13.5 56.3 56 5 41 0
11:25 1011 29.85 840 24.81 13.4 56.1 57 5.1 41.2 0
11:26 1011 29.85 840 24.81 13.4 56 57 5 40.9 0
11:27 1011 29.85 840 24.81 13.3 55.9 57 5.1 41.1 0
11:28 1011 29.85 840 24.81 13.2 55.8 57 4.9 40.7 0
11:29 1011 29.85 840 24.81 13.2 55.7 58 5.1 41.1 0
11:30 1011 29.85 840 24.81 13.1 55.6 58 5 41.1 0
11:31 1011 29.85 840 24.81 13.1 55.6 59 5.2 41.4 0
11:32 1011 29.85 840 24.81 13.1 55.6 59 5.3 41.5 0
11:33 1011 29.85 840 24.81 13.1 55.6 60 5.6 42.1 0
11:34 1011 29.85 840 24.81 13.1 55.7 58 5.1 41.2 0
11:35 1011 29.85 840 24.81 13.1 55.5 60 5.6 42.1 0
11:36 1011 29.85 840 24.81 13 55.3 60 5.6 42 0
11:37 1011 29.85 840 24.81 12.9 55.2 60 5.3 41.6 0
11:38 1011 29.85 840 24.81 12.8 55.1 61 5.5 42 0
11:39 1011 29.85 840 24.81 12.7 54.9 60 5.3 41.5 0
11:40 1011 29.85 840 24.81 12.7 54.8 61 5.5 41.9 0
11:41 1011 29.85 840 24.81 12.6 54.7 64 6.2 43.1 0
11:42 1011 29.85 840 24.81 12.6 54.7 63 5.9 42.6 0
11:43 1011 29.85 840 24.81 12.6 54.6 65 6.2 43.1 0
11:44 1011 29.85 840 24.81 12.6 54.6 65 6.2 43.1 0
11:45 1011 29.85 840 24.81 12.6 54.6 64 5.9 42.7 0
11:46 1011 29.85 840 24.81 12.6 54.7 63 5.9 42.6 0
11:47 1011 29.85 840 24.81 12.6 54.7 63 5.8 42.4 0
11:48 1011 29.85 840 24.81 12.6 54.7 62 5.6 42.2 0
11:49 1011 29.85 840 24.81 12.6 54.6 62 5.5 41.9 0
11:50 1011 29.85 840 24.81 12.6 54.7 62 5.6 42.2 0
11:51 1011 29.85 840 24.81 12.6 54.7 63 5.9 42.6 0
11:52 1011 29.85 840 24.81 12.6 54.8 62 5.6 42.1 0
11:53 1011 29.85 840 24.81 12.7 54.8 62 5.6 42.2 0
11:54 1011 29.85 840 24.81 12.7 54.8 60 5.2 41.3 0
11:55 1011 29.85 840 24.81 12.7 54.8 62 5.6 42 0
11:56 1011 29.85 840 24.81 12.7 54.8 59 5 41 0
11:57 1011 29.85 840 24.81 12.6 54.8 61 5.5 41.9 0
11:58 1011 29.85 840 24.81 12.7 54.8 61 5.3 41.6 0
11:59 1011 29.85 840 24.81 12.7 54.8 61 5.4 41.7 0
12:00 1011 29.85 840 24.81 12.6 54.8 62 5.6 42.2 0
12:01 1011 29.85 840 24.81 12.6 54.7 62 5.6 42.1 0
12:02 1011 29.85 840 24.81 12.6 54.7 61 5.3 41.6 0
12:03 1011 29.85 840 24.81 12.6 54.7 61 5.4 41.7 0
12:04 1011 29.85 840 24.81 12.7 54.8 61 5.3 41.6 0
12:05 1011 29.85 840 24.81 12.7 54.8 61 5.3 41.6 0
12:06 1011 29.85 840 24.81 12.7 54.8 60 5.1 41.2 0
12:07 1011 29.85 840 24.81 12.7 54.8 60 5.1 41.1 0
12:08 1011 29.85 840 24.81 12.7 54.9 60 5.3 41.5 0
12:09 1011 29.85 840 24.81 12.7 54.9 59 5 41 0
12:10 1011 29.85 840 24.81 12.7 54.9 60 5.1 41.2 0
12:11 1010 29.83 840 24.81 12.7 54.8 61 5.4 41.8 0
12:12 1010 29.83 840 24.81 12.7 54.8 61 5.3 41.6 0
12:13 1010 29.83 840 24.81 12.7 54.8 60 5.2 41.4 0
12:14 1010 29.83 840 24.81 12.7 54.8 61 5.3 41.6 0
12:15 1010 29.83 840 24.81 12.7 54.8 59 5 41 0
12:16 1010 29.83 840 24.81 12.6 54.7 59 5 41 0
12:17 1010 29.83 840 24.81 12.6 54.7 60 5.1 41.2 0
12:18 1010 29.83 840 24.81 12.6 54.6 61 5.3 41.5 0
12:19 1010 29.83 840 24.81 12.6 54.7 61 5.4 41.7 0
12:20 1010 29.83 840 24.81 12.6 54.6 61 5.4 41.8 0
12:21 1010 29.83 840 24.81 12.6 54.6 61 5.2 41.4 0
12:22 1010 29.83 840 24.81 12.6 54.6 60 5.1 41.1 0
12:23 1010 29.83 840 24.81 12.5 54.5 61 5.3 41.5 0
12:24 1010 29.83 840 24.81 12.5 54.5 61 5.3 41.5 0
12:25 1010 29.83 840 24.81 12.5 54.5 62 5.4 41.7 0
12:26 1010 29.83 840 24.81 12.4 54.4 63 5.6 42.1 0
12:27 1010 29.83 840 24.81 12.4 54.3 61 5.2 41.4 0
12:28 1010 29.83 840 24.81 12.4 54.3 62 5.3 41.6 0
12:29 1010 29.83 840 24.81 12.4 54.3 63 5.5 42 0
12:30 1010 29.83 840 24.81 12.3 54.2 64 5.7 42.3 0
12:31 1010 29.83 840 24.81 12.4 54.2 64 5.7 42.3 0
12:32 1010 29.83 840 24.81 12.3 54.2 64 5.8 42.4 0
12:33 1010 29.83 840 24.81 12.3 54.2 63 5.6 42 0
12:34 1010 29.83 840 24.81 12.3 54.2 63 5.5 41.8 0
12:35 1010 29.83 840 24.81 12.3 54.2 62 5.4 41.8 0
12:36 1010 29.83 840 24.81 12.4 54.3 63 5.5 42 0
12:37 1010 29.83 840 24.81 12.4 54.4 62 5.5 41.8 0
12:38 1010 29.83 840 24.81 12.5 54.5 63 5.6 42.1 0
12:39 1010 29.83 840 24.81 12.5 54.6 63 5.8 42.4 0
12:40 1010 29.83 840 24.81 12.6 54.7 63 5.7 42.3 0
12:41 1010 29.83 840 24.81 12.6 54.8 62 5.6 42 0
12:42 1010 29.83 840 24.81 12.7 54.9 62 5.6 42.1 0
12:43 1010 29.83 840 24.81 12.7 54.9 60 5.3 41.6 0
12:44 1010 29.83 839 24.78 12.8 55 62 5.8 42.5 0
12:45 1010 29.83 839 24.78 12.9 55.1 61 5.5 41.9 0
12:46 1010 29.83 839 24.78 12.8 55.1 61 5.5 41.9 0
12:47 1010 29.83 839 24.78 12.9 55.2 61 5.6 42 0
12:48 1010 29.83 839 24.78 12.9 55.1 61 5.6 42.2 0
12:49 1010 29.83 839 24.78 12.9 55.2 62 5.8 42.4 0
12:50 1010 29.83 839 24.78 12.9 55.2 60 5.4 41.8 0
12:51 1010 29.83 839 24.78 12.9 55.2 61 5.6 42 0
12:52 1010 29.83 839 24.78 12.9 55.2 60 5.4 41.8 0
12:53 1010 29.83 839 24.78 12.9 55.1 61 5.5 41.9 0
12:54 1010 29.83 839 24.78 12.9 55.2 61 5.6 42.1 0
12:55 1010 29.83 839 24.78 12.9 55.2 61 5.7 42.3 0
12:56 1010 29.83 839 24.78 12.9 55.1 60 5.2 41.4 0
12:57 1010 29.83 839 24.78 12.9 55.3 61 5.6 42.2 0
12:58 1010 29.83 839 24.78 12.9 55.3 59 5.3 41.5 0
12:59 1010 29.83 839 24.78 13 55.4 59 5.3 41.6 0
13:00 1010 29.83 839 24.78 13 55.4 60 5.4 41.7 0
13:01 1010 29.83 839 24.78 13 55.3 62 5.9 42.6 0
13:02 1010 29.83 839 24.78 13 55.5 59 5.4 41.7 0
13:03 1010 29.83 839 24.78 13 55.5 60 5.4 41.8 0
13:04 1010 29.83 839 24.78 13 55.5 59 5.3 41.6 0
13:05 1010 29.83 839 24.78 13.1 55.5 60 5.4 41.8 0
13:06 1010 29.83 839 24.78 13 55.3 60 5.4 41.7 0
13:07 1010 29.83 839 24.78 13 55.3 61 5.7 42.2 0
13:08 1010 29.83 839 24.78 13 55.3 61 5.7 42.3 0
13:09 1010 29.83 839 24.78 13 55.4 61 5.6 42.1 0
13:10 1010 29.83 839 24.78 13 55.3 60 5.5 41.9 0
13:11 1010 29.83 839 24.78 13 55.3 60 5.4 41.8 0
13:12 1010 29.83 839 24.78 13 55.3 61 5.8 42.4 0
13:13 1010 29.83 839 24.78 13 55.3 60 5.5 42 0
13:14 1010 29.83 839 24.78 12.9 55.3 59 5.2 41.4 0
13:15 1010 29.83 839 24.78 12.9 55.1 61 5.5 42 0
13:16 1010 29.83 839 24.78 12.9 55.2 60 5.4 41.8 0
13:17 1010 29.83 839 24.78 12.9 55.2 60 5.4 41.7 0
13:18 1010 29.83 839 24.78 12.8 55.1 58 4.9 40.8 0
13:19 1010 29.83 839 24.78 12.9 55.1 60 5.3 41.6 0
13:20 1010 29.83 839 24.78 12.8 55.1 59 5.1 41.3 0
13:21 1010 29.83 839 24.78 12.9 55.1 59 5.2 41.3 0
13:22 1010 29.83 839 24.78 12.9 55.1 59 5.2 41.3 0
13:23 1010 29.83 839 24.78 12.9 55.1 60 5.2 41.4 0
13:24 1010 29.83 839 24.78 12.8 55.1 59 5.2 41.3 0
13:25 1010 29.83 839 24.78 12.9 55.2 59 5.1 41.2 0
13:26 1010 29.83 839 24.78 12.9 55.1 59 5.1 41.2 0
13:27 1010 29.83 839 24.78 12.8 55.1 59 5.2 41.3 0
13:28 1010 29.83 839 24.78 12.8 55 59 5.1 41.3 0
13:29 1010 29.83 839 24.78 12.8 55.1 60 5.2 41.4 0
13:30 1010 29.83 839 24.78 12.8 55 59 5 41.1 0
13:31 1010 29.83 839 24.78 12.8 55 59 5.1 41.2 0
13:32 1010 29.83 839 24.78 12.7 54.9 60 5.1 41.2 0
13:33 1010 29.83 839 24.78 12.8 55 61 5.4 41.8 0
13:34 1010 29.83 839 24.78 12.7 54.9 61 5.4 41.7 0
13:35 1010 29.83 839 24.78 12.7 54.8 61 5.5 41.8 0
13:36 1010 29.83 839 24.78 12.7 54.8 61 5.5 41.8 0
13:37 1010 29.83 839 24.78 12.7 54.8 61 5.5 41.9 0
13:38 1010 29.83 839 24.78 12.6 54.7 62 5.5 42 0
13:39 1010 29.83 839 24.78 12.6 54.8 63 5.8 42.4 0
13:40 1010 29.83 839 24.78 12.6 54.7 64 6 42.8 0
13:41 1010 29.83 839 24.78 12.5 54.5 64 6 42.8 0
13:42 1010 29.83 839 24.78 12.4 54.3 64 5.9 42.5 0
13:43 1010 29.83 839 24.78 12.3 54.2 66 6.2 43.1 0
13:44 1010 29.83 839 24.78 12.3 54.1 68 6.6 43.8 0
13:45 1010 29.83 839 24.78 12.2 53.9 70 6.8 44.3 0
13:46 1010 29.83 839 24.78 12.1 53.7 71 7 44.5 0
13:47 1010 29.83 839 24.78 11.9 53.5 71 6.8 44.3 0
13:48 1010 29.83 839 24.78 11.9 53.4 72 7 44.6 0
13:49 1010 29.83 839 24.78 11.8 53.2 72 7 44.6 0
13:50 1010 29.83 839 24.78 11.7 53.1 73 7.2 44.9 0
13:51 1010 29.83 839 24.78 11.7 53 75 7.4 45.4 0
13:52 1010 29.83 839 24.78 11.6 52.9 75 7.4 45.3 0
13:53 1010 29.83 839 24.78 11.6 52.8 76 7.4 45.4 0
13:54 1010 29.83 839 24.78 11.5 52.7 77 7.7 45.8 0
13:55 1010 29.83 839 24.78 11.4 52.6 77 7.5 45.5 0
13:56 1010 29.83 839 24.78 11.4 52.5 77 7.4 45.4 0
13:57 1010 29.83 839 24.78 11.3 52.4 77 7.5 45.4 0
13:58 1010 29.83 839 24.78 11.3 52.4 77 7.5 45.5 0
13:59 1010 29.83 839 24.78 11.3 52.3 78 7.7 45.8 0
14:00 1010 29.83 839 24.78 11.2 52.2 77 7.4 45.3 0
14:01 1010 29.83 839 24.78 11.1 52.1 78 7.5 45.6 0
14:02 1010 29.83 839 24.78 11.1 52 78 7.4 45.3 0
14:03 1010 29.83 839 24.78 11.1 51.9 79 7.5 45.6 0
14:04 1010 29.83 839 24.78 11 51.8 79 7.6 45.7 0
14:05 1010 29.83 839 24.78 10.9 51.7 81 7.7 45.9 0
14:06 1010 29.83 839 24.78 10.9 51.6 81 7.8 46 0
14:07 1010 29.83 839 24.78 10.8 51.5 81 7.7 45.9 0
14:08 1010 29.83 839 24.78 10.8 51.5 81 7.8 46 0
14:09 1010 29.83 839 24.78 10.8 51.4 82 7.8 46 0
14:10 1010 29.83 839 24.78 10.8 51.4 82 7.8 46 0
14:11 1010 29.83 839 24.78 10.7 51.3 83 7.9 46.3 0
14:12 1010 29.83 839 24.78 10.7 51.3 82 7.7 45.9 0
14:13 1010 29.83 839 24.78 10.7 51.3 81 7.6 45.7 0
14:14 1010 29.83 839 24.78 10.7 51.3 83 7.9 46.3 0
14:15 1010 29.83 839 24.78 10.7 51.3 84 8.1 46.7 0
14:16 1010 29.83 839 24.78 10.7 51.3 85 8.3 46.9 0
14:17 1010 29.83 839 24.78 10.7 51.3 85 8.3 47 0
14:18 1010 29.83 839 24.78 10.7 51.3 83 8 46.5 0
14:19 1010 29.83 839 24.78 10.7 51.2 84 8.1 46.6 0
14:20 1010 29.83 839 24.78 10.6 51.1 84 8 46.4 0
14:21 1010 29.83 839 24.78 10.6 51 83 7.8 46.1 0
14:22 1010 29.83 839 24.78 10.5 50.9 83 7.8 46 0
14:23 1010 29.83 839 24.78 10.5 50.9 84 7.9 46.1 0
14:24 1010 29.83 839 24.78 10.4 50.8 83 7.7 45.9 0
14:25 1010 29.83 839 24.78 10.4 50.8 84 7.9 46.2 0
14:26 1010 29.83 839 24.78 10.4 50.8 85 8.1 46.5 0
14:27 1010 29.83 839 24.78 10.4 50.7 85 8 46.4 0
14:28 1010 29.83 839 24.78 10.4 50.7 85 8 46.5 0
14:29 1010 29.83 839 24.78 10.4 50.7 85 8 46.4 0
14:30 1010 29.83 839 24.78 10.4 50.7 85 8 46.4 0
14:31 1010 29.83 839 24.78 10.3 50.6 85 7.9 46.2 0
14:32 1010 29.83 839 24.78 10.3 50.6 85 7.9 46.3 0
14:33 1010 29.83 839 24.78 10.4 50.7 86 8.1 46.6 0
14:34 1010 29.83 839 24.78 10.4 50.6 86 8.1 46.6 0
14:35 1010 29.83 839 24.78 10.4 50.7 86 8.1 46.7 0
14:36 1010 29.83 839 24.78 10.4 50.7 85 8 46.5 0
14:37 1010 29.83 839 24.78 10.3 50.6 84 7.8 46 0
14:38 1010 29.83 839 24.78 10.4 50.7 83 7.6 45.7 0
14:39 1010 29.83 839 24.78 10.4 50.7 84 7.8 46 0
14:40 1010 29.83 839 24.78 10.4 50.8 84 7.8 46 0
14:41 1010 29.83 839 24.78 10.4 50.8 85 8 46.3 0
14:42 1010 29.83 839 24.78 10.4 50.8 85 8 46.4 0
14:43 1010 29.83 839 24.78 10.4 50.7 85 7.9 46.3 0
14:44 1010 29.83 839 24.78 10.4 50.8 85 8 46.4 0
14:45 1010 29.83 839 24.78 10.4 50.7 85 8.1 46.6 0
14:46 1010 29.83 839 24.78 10.4 50.8 85 8.1 46.5 0
14:47 1010 29.83 839 24.78 10.4 50.8 85 8 46.3 0
14:48 1010 29.83 839 24.78 10.4 50.8 84 7.9 46.3 0
14:49 1010 29.83 839 24.78 10.4 50.8 84 7.9 46.2 0
14:50 1010 29.83 839 24.78 10.5 50.8 85 8.1 46.6 0
14:51 1010 29.83 839 24.78 10.4 50.8 86 8.2 46.7 0
14:52 1010 29.83 839 24.78 10.4 50.7 86 8.3 46.9 0
14:53 1010 29.83 839 24.78 10.4 50.7 85 8.1 46.5 0
14:54 1010 29.83 839 24.78 10.4 50.7 85 8 46.5 0
14:55 1010 29.83 839 24.78 10.3 50.5 85 7.9 46.2 0
14:56 1010 29.83 839 24.78 10.3 50.5 85 8 46.3 0
14:57 1010 29.83 839 24.78 10.3 50.5 85 7.9 46.3 0
14:58 1010 29.83 839 24.78 10.2 50.4 86 7.9 46.3 0
14:59 1010 29.83 839 24.78 10.2 50.4 86 7.9 46.3 0
15:00 1010 29.83 840 24.81 10.2 50.3 86 7.9 46.3 0
15:01 1010 29.83 840 24.81 10.2 50.3 85 7.8 46 0
15:02 1010 29.83 839 24.78 10.1 50.2 86 7.9 46.2 0
15:03 1010 29.83 839 24.78 10.1 50.2 86 8 46.3 0
15:04 1010 29.83 839 24.78 10.1 50.2 87 8 46.4 0
15:05 1010 29.83 839 24.78 10 49.9 87 8 46.3 0
15:06 1010 29.83 839 24.78 9.9 49.9 87 7.9 46.3 0
15:07 1010 29.83 839 24.78 9.9 49.7 88 7.9 46.2 0
15:08 1010 29.83 839 24.78 9.8 49.7 87 7.9 46.1 0
15:09 1010 29.83 839 24.78 9.8 49.6 88 7.8 46.1 0
15:10 1010 29.83 839 24.78 9.8 49.6 88 7.9 46.3 0
15:11 1010 29.83 839 24.78 9.7 49.5 89 8 46.4 0
15:12 1010 29.83 839 24.78 9.6 49.4 89 7.9 46.2 0
15:13 1010 29.83 839 24.78 9.6 49.3 89 7.9 46.3 0
15:14 1010 29.83 839 24.78 9.6 49.2 89 7.9 46.2 0
15:15 1010 29.83 839 24.78 9.5 49.2 89 7.9 46.2 0
15:16 1010 29.83 839 24.78 9.5 49.1 90 7.9 46.2 0
15:17 1010 29.83 839 24.78 9.5 49.1 90 7.9 46.2 0
15:18 1010 29.83 839 24.78 9.5 49.1 90 8 46.4 0
15:19 1010 29.83 839 24.78 9.5 49 91 8 46.4 0
15:20 1010 29.83 839 24.78 9.4 49 91 8.1 46.5 0
15:21 1010 29.83 839 24.78 9.4 49 91 8 46.4 0
15:22 1010 29.83 839 24.78 9.4 49 91 8.1 46.5 0
15:23 1010 29.83 839 24.78 9.4 48.9 92 8.1 46.5 0
15:24 1010 29.83 839 24.78 9.3 48.8 92 8.1 46.7 0
15:25 1010 29.83 839 24.78 9.4 48.8 93 8.2 46.8 0
15:26 1010 29.83 839 24.78 9.4 48.9 93 8.3 46.9 0
15:27 1010 29.83 839 24.78 9.4 48.9 93 8.3 47 0
15:28 1010 29.83 840 24.81 9.4 48.9 93 8.3 47 0
15:29 1010 29.83 840 24.81 9.4 48.9 93 8.3 46.9 0
15:30 1010 29.83 840 24.81 9.3 48.8 93 8.3 46.9 0
15:31 1010 29.83 840 24.81 9.3 48.7 93 8.3 46.9 0
15:32 1010 29.83 840 24.81 9.3 48.8 93 8.3 46.9 0
15:33 1010 29.83 839 24.78 9.2 48.6 94 8.2 46.8 0
15:34 1010 29.83 839 24.78 9.2 48.6 94 8.2 46.8 0
15:35 1010 29.83 840 24.81 9.2 48.5 94 8.3 46.9 0
15:36 1010 29.83 839 24.78 9.2 48.5 94 8.3 46.9 0
15:37 1010 29.83 839 24.78 9.2 48.5 94 8.3 46.9 0
15:38 1010 29.83 840 24.81 9.1 48.4 94 8.2 46.8 0
15:39 1010 29.83 840 24.81 9.1 48.4 94 8.3 46.9 0
15:40 1010 29.83 840 24.81 9.2 48.5 94 8.3 46.9 0
15:41 1010 29.83 840 24.81 9.1 48.4 94 8.3 46.9 0
15:42 1010 29.83 840 24.81 9.1 48.4 94 8.3 46.9 0
15:43 1010 29.83 840 24.81 9.1 48.4 95 8.3 46.9 0
15:44 1010 29.83 840 24.81 9.1 48.4 94 8.2 46.8 0
15:45 1010 29.83 840 24.81 9.1 48.4 95 8.3 46.9 0
15:46 1010 29.83 840 24.81 9.1 48.3 95 8.3 46.9 0
15:47 1010 29.83 840 24.81 9.1 48.4 95 8.3 46.9 0
15:48 1010 29.83 840 24.81 9.1 48.3 95 8.2 46.8 0
15:49 1010 29.83 840 24.81 9.1 48.3 95 8.2 46.8 0
15:50 1010 29.83 840 24.81 9 48.3 95 8.3 46.9 0
15:51 1010 29.83 840 24.81 9 48.2 95 8.2 46.8 0
15:52 1010 29.83 840 24.81 9 48.2 95 8.2 46.8 0
15:53 1010 29.83 840 24.81 9 48.2 95 8.2 46.8 0
15:54 1010 29.83 840 24.81 9 48.2 95 8.2 46.8 0
15:55 1010 29.83 840 24.81 9 48.2 95 8.3 46.9 0
15:56 1010 29.83 840 24.81 9 48.2 95 8.2 46.8 0
15:57 1010 29.83 840 24.81 9 48.1 95 8.2 46.8 0
15:58 1010 29.83 840 24.81 9 48.1 95 8.3 46.9 0
15:59 1010 29.83 840 24.81 9 48.2 95 8.3 46.9 0
16:00 1010 29.83 840 24.81 8.9 48.1 95 8.2 46.8 0
16:01 1010 29.83 840 24.81 8.9 48.1 95 8.2 46.8 0
16:02 1010 29.83 840 24.81 8.9 48.1 96 8.3 46.9 0
16:03 1011 29.85 840 24.81 9 48.1 96 8.3 46.9 0
16:04 1011 29.85 840 24.81 8.9 48.1 96 8.3 47 0
16:05 1010 29.83 840 24.81 9 48.1 96 8.3 47 0
16:06 1010 29.83 840 24.81 8.9 48.1 96 8.3 46.9 0
16:07 1011 29.85 840 24.81 8.9 48 96 8.3 46.9 0
16:08 1010 29.83 840 24.81 8.9 48 96 8.3 46.9 0
16:09 1010 29.83 840 24.81 8.9 48.1 96 8.3 46.9 0
16:10 1010 29.83 840 24.81 8.9 48 96 8.3 46.9 0
16:11 1010 29.83 840 24.81 8.9 48.1 96 8.3 47 0
16:12 1010 29.83 840 24.81 8.9 47.9 96 8.3 46.9 0
16:13 1010 29.83 840 24.81 8.9 48 96 8.3 47 0
16:14 1010 29.83 840 24.81 8.9 48 96 8.3 47 0
16:15 1010 29.83 840 24.81 8.9 48 96 8.3 47 0
16:16 1011 29.85 840 24.81 8.9 47.9 96 8.3 47 0
16:17 1011 29.85 840 24.81 8.8 47.9 96 8.3 46.9 0
16:18 1011 29.85 840 24.81 8.8 47.9 96 8.3 46.9 0
16:19 1011 29.85 840 24.81 8.8 47.8 96 8.2 46.8 0
16:20 1011 29.85 840 24.81 8.8 47.9 96 8.3 46.9 0
16:21 1011 29.85 840 24.81 8.8 47.9 96 8.3 46.9 0
16:22 1010 29.83 840 24.81 8.8 47.8 97 8.3 46.9 0
16:23 1010 29.83 840 24.81 8.8 47.8 97 8.2 46.8 0
16:24 1010 29.83 840 24.81 8.8 47.8 97 8.2 46.8 0
16:25 1010 29.83 840 24.81 8.8 47.8 97 8.3 46.9 0
16:26 1011 29.85 840 24.81 8.8 47.8 97 8.3 46.9 0
16:27 1011 29.85 840 24.81 8.8 47.8 97 8.3 46.9 0
16:28 1011 29.85 840 24.81 8.7 47.7 97 8.2 46.8 0
16:29 1011 29.85 840 24.81 8.8 47.8 97 8.3 46.9 0
16:30 1011 29.85 840 24.81 8.8 47.8 97 8.3 46.9 0
16:31 1011 29.85 840 24.81 8.7 47.7 97 8.2 46.8 0
16:32 1011 29.85 840 24.81 8.7 47.7 97 8.2 46.8 0
16:33 1011 29.85 840 24.81 8.7 47.7 97 8.2 46.8 0
16:34 1011 29.85 840 24.81 8.7 47.7 97 8.2 46.8 0
16:35 1011 29.85 840 24.81 8.7 47.7 97 8.2 46.8 0
16:36 1011 29.85 840 24.81 8.7 47.6 97 8.2 46.8 0
16:37 1011 29.85 840 24.81 8.7 47.7 97 8.2 46.8 0
16:38 1011 29.85 840 24.81 8.7 47.7 97 8.2 46.8 0
16:39 1011 29.85 840 24.81 8.7 47.7 97 8.2 46.8 0
16:40 1011 29.85 840 24.81 8.7 47.6 97 8.2 46.8 0
16:41 1011 29.85 840 24.81 8.7 47.6 97 8.2 46.8 0
16:42 1011 29.85 840 24.81 8.7 47.6 97 8.2 46.7 0
16:43 1011 29.85 840 24.81 8.7 47.6 97 8.2 46.7 0
16:44 1011 29.85 840 24.81 8.6 47.6 97 8.2 46.7 0
16:45 1011 29.85 840 24.81 8.6 47.5 97 8.2 46.7 0
16:46 1011 29.85 840 24.81 8.6 47.5 97 8.1 46.6 0
16:47 1011 29.85 840 24.81 8.6 47.4 97 8.1 46.6 0
16:48 1011 29.85 840 24.81 8.6 47.5 97 8.1 46.6 0
16:49 1011 29.85 840 24.81 8.6 47.4 97 8.1 46.6 0
16:50 1011 29.85 840 24.81 8.6 47.4 97 8.1 46.5 0
16:51 1011 29.85 840 24.81 8.6 47.4 97 8.1 46.6 0
16:52 1011 29.85 840 24.81 8.5 47.4 97 8.1 46.5 0
16:53 1011 29.85 840 24.81 8.5 47.4 97 8.1 46.5 0
16:54 1011 29.85 840 24.81 8.5 47.4 97 8.1 46.5 0
16:55 1011 29.85 840 24.81 8.5 47.4 97 8.1 46.6 0
16:56 1011 29.85 840 24.81 8.5 47.4 97 8.1 46.6 0
16:57 1011 29.85 840 24.81 8.6 47.4 97 8.1 46.6 0
16:58 1011 29.85 840 24.81 8.5 47.3 97 8.1 46.5 0
16:59 1011 29.85 840 24.81 8.5 47.3 97 8.1 46.5 0
17:00 1011 29.85 840 24.81 8.5 47.3 97 8 46.4 0
17:01 1011 29.85 840 24.81 8.5 47.3 97 8 46.5 0
17:02 1011 29.85 840 24.81 8.5 47.2 97 8 46.4 0
17:03 1011 29.85 840 24.81 8.5 47.2 97 8 46.4 0
17:04 1011 29.85 840 24.81 8.4 47.2 97 8 46.3 0
17:05 1011 29.85 840 24.81 8.4 47.2 97 8 46.4 0
17:06 1011 29.85 840 24.81 8.4 47.2 97 8 46.4 0
17:07 1011 29.85 840 24.81 8.4 47.1 97 7.9 46.3 0
17:08 1011 29.85 840 24.81 8.4 47.1 97 8 46.3 0
17:09 1011 29.85 840 24.81 8.4 47.1 97 7.9 46.3 0
17:10 1011 29.85 840 24.81 8.4 47 97 7.9 46.2 0
17:11 1011 29.85 840 24.81 8.4 47.1 97 8 46.3 0
17:12 1011 29.85 840 24.81 8.3 47 97 7.9 46.2 0
17:13 1011 29.85 840 24.81 8.4 47.1 97 8 46.3 0
17:14 1011 29.85 840 24.81 8.4 47.1 97 7.9 46.3 0
17:15 1011 29.85 840 24.81 8.4 47 97 7.9 46.3 0
17:16 1011 29.85 840 24.81 8.4 47 97 7.9 46.3 0
17:17 1011 29.85 840 24.81 8.3 47 97 7.9 46.3 0
17:18 1011 29.85 841 24.83 8.3 47 97 7.9 46.2 0
17:19 1011 29.85 840 24.81 8.3 46.9 97 7.9 46.2 0
17:20 1011 29.85 840 24.81 8.3 46.9 97 7.9 46.1 0
17:21 1011 29.85 840 24.81 8.3 46.9 97 7.8 46.1 0
17:22 1011 29.85 841 24.83 8.2 46.8 97 7.8 46.1 0
17:23 1011 29.85 841 24.83 8.3 46.9 97 7.8 46.1 0
17:24 1011 29.85 841 24.83 8.2 46.8 97 7.8 46 0
17:25 1011 29.85 841 24.83 8.2 46.7 97 7.8 46 0
17:26 1011 29.85 841 24.83 8.2 46.7 97 7.8 46 0
17:27 1011 29.85 841 24.83 8.2 46.8 97 7.8 46 0
17:28 1011 29.85 841 24.83 8.2 46.8 97 7.8 46 0
17:29 1011 29.85 840 24.81 8.2 46.7 97 7.8 46 0
17:30 1011 29.85 841 24.83 8.2 46.7 97 7.8 46 0
17:31 1011 29.85 841 24.83 8.1 46.6 97 7.7 45.9 0
17:32 1011 29.85 841 24.83 8.1 46.6 97 7.7 45.8 0
17:33 1011 29.85 841 24.83 8.1 46.6 97 7.7 45.9 0
17:34 1011 29.85 841 24.83 8.1 46.5 97 7.7 45.8 0
17:35 1011 29.85 841 24.83 8.1 46.5 97 7.6 45.8 0
17:36 1011 29.85 841 24.83 8.1 46.5 97 7.7 45.8 0
17:37 1011 29.85 841 24.83 8 46.4 97 7.6 45.7 0
17:38 1011 29.85 841 24.83 8 46.4 97 7.6 45.7 0
17:39 1011 29.85 841 24.83 8 46.4 97 7.6 45.7 0
17:40 1011 29.85 841 24.83 8 46.4 97 7.6 45.6 0
17:41 1011 29.85 841 24.83 8 46.3 97 7.6 45.6 0
17:42 1011 29.85 841 24.83 8 46.3 97 7.5 45.6 0
17:43 1012 29.88 841 24.83 7.9 46.3 97 7.5 45.5 0
17:44 1011 29.85 841 24.83 7.8 46.1 97 7.4 45.3 0
17:45 1012 29.88 841 24.83 7.8 46 97 7.3 45.2 0
17:46 1012 29.88 841 24.83 7.7 45.9 96 7.2 44.9 0
17:47 1012 29.88 841 24.83 7.7 45.8 95 6.9 44.5 0
17:48 1012 29.88 841 24.83 7.6 45.7 94 6.7 44 0
17:49 1012 29.88 841 24.83 7.6 45.6 94 6.6 43.9 0
17:50 1012 29.88 841 24.83 7.5 45.6 93 6.5 43.7 0
17:51 1012 29.88 841 24.83 7.5 45.5 93 6.4 43.6 0
17:52 1012 29.88 841 24.83 7.5 45.4 93 6.4 43.6 0
17:53 1012 29.88 841 24.83 7.4 45.4 93 6.3 43.4 0
17:54 1012 29.88 841 24.83 7.4 45.4 93 6.3 43.4 0
17:55 1012 29.88 841 24.83 7.4 45.4 92 6.3 43.3 0
17:56 1012 29.88 841 24.83 7.4 45.4 92 6.3 43.3 0
17:57 1012 29.88 841 24.83 7.4 45.4 92 6.2 43.2 0
17:58 1012 29.88 841 24.83 7.4 45.4 92 6.2 43.2 0
17:59 1012 29.88 841 24.83 7.4 45.3 92 6.1 43 0
18:00 1012 29.88 841 24.83 7.4 45.3 92 6.1 43.1 0
18:01 1012 29.88 841 24.83 7.3 45.2 92 6 42.9 0
18:02 1012 29.88 841 24.83 7.3 45.2 92 6.1 43 0
18:03 1012 29.88 841 24.83 7.3 45.1 91 5.9 42.7 0
18:04 1012 29.88 841 24.83 7.3 45.1 91 5.9 42.5 0
18:05 1012 29.88 841 24.83 7.3 45.1 90 5.8 42.4 0
18:06 1012 29.88 841 24.83 7.3 45.2 90 5.8 42.4 0
18:07 1012 29.88 841 24.83 7.3 45.2 89 5.6 42.1 0
18:08 1012 29.88 841 24.83 7.4 45.3 89 5.7 42.2 0
18:09 1012 29.88 841 24.83 7.4 45.3 90 5.8 42.5 0
18:10 1012 29.88 841 24.83 7.4 45.2 91 6 42.7 0
18:11 1012 29.88 841 24.83 7.3 45.1 91 5.9 42.7 0
18:12 1012 29.88 841 24.83 7.2 45 91 5.8 42.4 0
18:13 1012 29.88 841 24.83 7.2 44.9 90 5.7 42.3 0
18:14 1012 29.88 841 24.83 7.1 44.9 88 5.3 41.5 0
18:15 1012 29.88 841 24.83 7.2 44.9 88 5.2 41.4 0
18:16 1012 29.88 841 24.83 7.2 44.9 86 5 41.1 0
18:17 1012 29.88 841 24.83 7.2 45 85 4.9 40.8 0
18:18 1012 29.88 841 24.83 7.2 44.9 85 4.8 40.6 0
18:19 1012 29.88 841 24.83 7.2 45 84 4.7 40.4 0
18:20 1012 29.88 841 24.83 7.2 45 83 4.6 40.3 0
18:21 1012 29.88 841 24.83 7.3 45.1 84 4.8 40.6 0
18:22 1012 29.88 841 24.83 7.2 45 84 4.7 40.4 0
18:23 1012 29.88 841 24.83 7.2 44.9 85 4.8 40.6 0
18:24 1012 29.88 841 24.83 7.1 44.8 85 4.8 40.6 0
18:25 1012 29.88 841 24.83 7.1 44.7 84 4.5 40.1 0
18:26 1012 29.88 841 24.83 7.1 44.8 81 4.1 39.4 0
18:27 1012 29.88 841 24.83 7.2 44.9 81 4.1 39.4 0
18:28 1012 29.88 841 24.83 7.2 45 82 4.3 39.8 0
18:29 1012 29.88 841 24.83 7.2 44.9 80 4.1 39.3 0
18:30 1012 29.88 841 24.83 7.3 45.1 81 4.2 39.5 0
18:31 1012 29.88 841 24.83 7.3 45.2 80 4.1 39.4 0
18:32 1012 29.88 841 24.83 7.3 45.1 80 4 39.2 0
18:33 1012 29.88 841 24.83 7.3 45.1 80 4.1 39.4 0
18:34 1012 29.88 841 24.83 7.3 45.1 80 4.1 39.3 0
18:35 1012 29.88 841 24.83 7.3 45.1 80 4 39.3 0
18:36 1012 29.88 842 24.86 7.3 45.1 81 4.2 39.6 0
18:37 1012 29.88 842 24.86 7.2 45 81 4.2 39.6 0
18:38 1012 29.88 842 24.86 7.3 45.1 83 4.6 40.3 0
18:39 1012 29.88 842 24.86 7.2 45 84 4.6 40.3 0
18:40 1012 29.88 842 24.86 7.2 44.9 85 4.8 40.7 0
18:41 1012 29.88 842 24.86 7.1 44.8 85 4.7 40.5 0
18:42 1012 29.88 842 24.86 7 44.7 84 4.5 40 0
18:43 1012 29.88 842 24.86 7.1 44.7 79 3.7 38.6 0
18:44 1012 29.88 842 24.86 7.3 45.1 78 3.6 38.6 0
18:45 1012 29.88 842 24.86 7.3 45.2 78 3.7 38.6 0
18:46 1012 29.88 842 24.86 7.4 45.3 78 3.9 39 0
18:47 1012 29.88 842 24.86 7.3 45.2 78 3.8 38.9 0
18:48 1012 29.88 842 24.86 7.4 45.3 79 4.1 39.3 0
18:49 1012 29.88 842 24.86 7.4 45.3 79 4 39.2 0
18:50 1012 29.88 842 24.86 7.4 45.3 80 4.1 39.4 0
18:51 1012 29.88 842 24.86 7.5 45.4 78 3.8 38.9 0
18:52 1012 29.88 842 24.86 7.5 45.5 79 4.1 39.4 0
18:53 1012 29.88 842 24.86 7.5 45.5 80 4.3 39.8 0
18:54 1012 29.88 842 24.86 7.4 45.3 81 4.4 39.9 0
18:55 1012 29.88 842 24.86 7.3 45.1 82 4.4 39.9 0
18:56 1012 29.88 842 24.86 7.2 45 83 4.5 40.1 0
18:57 1012 29.88 842 24.86 7.2 44.9 83 4.5 40.2 0
18:58 1012 29.88 842 24.86 7.1 44.8 84 4.6 40.3 0
18:59 1013 29.91 842 24.86 7 44.7 84 4.5 40 0
19:00 1012 29.88 842 24.86 7 44.6 85 4.6 40.3 0
19:01 1013 29.91 842 24.86 7 44.6 85 4.6 40.3 0
19:02 1013 29.91 842 24.86 6.9 44.5 85 4.6 40.2 0
19:03 1013 29.91 842 24.86 6.9 44.5 85 4.6 40.4 0
19:04 1013 29.91 842 24.86 6.9 44.5 86 4.7 40.5 0
19:05 1013 29.91 842 24.86 6.9 44.5 86 4.8 40.6 0
19:06 1013 29.91 842 24.86 6.9 44.5 86 4.8 40.7 0
19:07 1013 29.91 842 24.86 6.9 44.5 87 4.9 40.7 0
19:08 1013 29.91 842 24.86 6.9 44.4 87 4.9 40.8 0
19:09 1013 29.91 842 24.86 6.8 44.3 88 4.9 40.8 0
19:10 1013 29.91 842 24.86 6.8 44.3 88 4.9 40.9 0
19:11 1013 29.91 842 24.86 6.8 44.2 88 4.9 40.9 0
19:12 1013 29.91 842 24.86 6.7 44.1 88 4.9 40.9 0
19:13 1013 29.91 842 24.86 6.7 44.1 88 5 40.9 0
19:14 1013 29.91 842 24.86 6.7 44.1 88 4.9 40.8 0
19:15 1013 29.91 842 24.86 6.7 44 88 4.9 40.8 0
19:16 1013 29.91 842 24.86 6.7 44 88 4.8 40.7 0
19:17 1013 29.91 842 24.86 6.7 44 88 4.9 40.8 0
19:18 1013 29.91 842 24.86 6.7 44 88 4.8 40.6 0
19:19 1013 29.91 842 24.86 6.7 44.1 88 4.9 40.8 0
19:20 1013 29.91 842 24.86 6.7 44 88 4.9 40.8 0
19:21 1013 29.91 842 24.86 6.7 44 88 4.9 40.7 0
19:22 1012 29.88 842 24.86 6.6 43.9 89 4.9 40.9 0
19:23 1013 29.91 842 24.86 6.6 43.8 89 4.9 40.7 0
19:24 1013 29.91 842 24.86 6.6 43.8 89 4.9 40.7 0
19:25 1013 29.91 842 24.86 6.6 43.8 89 4.8 40.7 0
19:26 1013 29.91 842 24.86 6.6 43.8 89 4.9 40.8 0
19:27 1013 29.91 842 24.86 6.5 43.8 89 4.9 40.8 0
19:28 1013 29.91 842 24.86 6.5 43.7 89 4.9 40.8 0
19:29 1013 29.91 842 24.86 6.5 43.7 90 4.9 40.8 0
19:30 1013 29.91 842 24.86 6.5 43.6 90 4.9 40.8 0
19:31 1013 29.91 842 24.86 6.4 43.6 90 4.9 40.8 0
19:32 1013 29.91 842 24.86 6.4 43.6 90 4.9 40.8 0
19:33 1013 29.91 842 24.86 6.4 43.6 90 4.9 40.8 0
19:34 1013 29.91 842 24.86 6.4 43.6 90 4.9 40.8 0
19:35 1013 29.91 842 24.86 6.4 43.6 90 4.8 40.7 0
19:36 1013 29.91 842 24.86 6.5 43.7 90 4.9 40.9 0
19:37 1013 29.91 842 24.86 6.5 43.7 90 5 40.9 0
19:38 1013 29.91 842 24.86 6.5 43.8 90 5 41.1 0
19:39 1013 29.91 842 24.86 6.5 43.6 90 5 41 0
19:40 1013 29.91 842 24.86 6.5 43.6 91 5 41 0
19:41 1013 29.91 842 24.86 6.4 43.5 91 5 41.1 0
19:42 1013 29.91 842 24.86 6.3 43.4 91 5 41.1 0
19:43 1013 29.91 842 24.86 6.4 43.5 91 5.1 41.1 0
19:44 1013 29.91 842 24.86 6.3 43.4 91 5 41 0
19:45 1013 29.91 842 24.86 6.3 43.4 91 5 41.1 0
19:46 1013 29.91 842 24.86 6.3 43.3 91 5 41 0
19:47 1013 29.91 842 24.86 6.3 43.4 91 5 41 0
19:48 1013 29.91 842 24.86 6.3 43.3 91 5 40.9 0
19:49 1013 29.91 842 24.86 6.3 43.3 91 4.9 40.9 0
19:50 1013 29.91 842 24.86 6.3 43.4 91 5 40.9 0
19:51 1013 29.91 842 24.86 6.3 43.4 91 5 41 0
19:52 1013 29.91 842 24.86 6.3 43.4 91 4.9 40.9 0
19:53 1013 29.91 842 24.86 6.3 43.4 91 4.9 40.9 0
19:54 1013 29.91 842 24.86 6.3 43.4 90 4.8 40.7 0
19:55 1013 29.91 842 24.86 6.4 43.5 90 4.8 40.7 0
19:56 1013 29.91 842 24.86 6.4 43.5 90 4.9 40.7 0
19:57 1013 29.91 842 24.86 6.4 43.5 90 4.9 40.8 0
19:58 1013 29.91 842 24.86 6.4 43.5 90 4.9 40.8 0
19:59 1013 29.91 842 24.86 6.4 43.5 90 4.9 40.8 0
20:00 1013 29.91 842 24.86 6.3 43.4 90 4.8 40.7 0
20:01 1013 29.91 842 24.86 6.3 43.3 90 4.8 40.7 0
20:02 1013 29.91 842 24.86 6.3 43.4 90 4.8 40.7 0
20:03 1013 29.91 842 24.86 6.3 43.3 90 4.8 40.6 0
20:04 1013 29.91 842 24.86 6.3 43.4 91 4.9 40.8 0
20:05 1013 29.91 842 24.86 6.3 43.3 91 4.9 40.8 0
20:06 1013 29.91 842 24.86 6.3 43.3 90 4.8 40.7 0
20:07 1013 29.91 842 24.86 6.3 43.3 90 4.9 40.7 0
20:08 1013 29.91 842 24.86 6.3 43.3 90 4.8 40.6 0
20:09 1013 29.91 842 24.86 6.3 43.3 90 4.8 40.6 0
20:10 1013 29.91 842 24.86 6.3 43.4 90 4.8 40.7 0
20:11 1013 29.91 842 24.86 6.3 43.4 90 4.8 40.7 0
20:12 1013 29.91 842 24.86 6.3 43.4 90 4.8 40.6 0
20:13 1013 29.91 842 24.86 6.3 43.4 89 4.7 40.5 0
20:14 1013 29.91 842 24.86 6.4 43.4 90 4.8 40.6 0
20:15 1013 29.91 842 24.86 6.3 43.4 90 4.8 40.6 0
20:16 1013 29.91 842 24.86 6.4 43.4 90 4.8 40.6 0
20:17 1013 29.91 842 24.86 6.4 43.4 90 4.8 40.6 0
20:18 1013 29.91 842 24.86 6.3 43.4 90 4.8 40.6 0
20:19 1013 29.91 842 24.86 6.3 43.4 89 4.7 40.5 0
20:20 1013 29.91 842 24.86 6.3 43.3 89 4.6 40.3 0
20:21 1013 29.91 842 24.86 6.4 43.4 89 4.7 40.4 0
20:22 1013 29.91 842 24.86 6.3 43.4 89 4.6 40.3 0
20:23 1013 29.91 842 24.86 6.4 43.5 89 4.7 40.5 0
20:24 1013 29.91 842 24.86 6.3 43.4 89 4.7 40.4 0
20:25 1013 29.91 842 24.86 6.3 43.4 89 4.7 40.4 0
20:26 1013 29.91 842 24.86 6.3 43.4 89 4.6 40.4 0
20:27 1013 29.91 842 24.86 6.4 43.5 89 4.7 40.4 0
20:28 1013 29.91 842 24.86 6.3 43.4 89 4.7 40.4 0
20:29 1013 29.91 842 24.86 6.3 43.4 89 4.7 40.5 0
20:30 1013 29.91 842 24.86 6.4 43.4 89 4.7 40.5 0
20:31 1013 29.91 842 24.86 6.4 43.4 89 4.7 40.5 0
20:32 1013 29.91 842 24.86 6.3 43.3 90 4.7 40.5 0
20:33 1013 29.91 842 24.86 6.2 43.2 90 4.7 40.5 0
20:34 1013 29.91 842 24.86 6.1 43 91 4.7 40.4 0
20:35 1013 29.91 842 24.86 6.1 42.9 91 4.7 40.5 0
20:36 1013 29.91 842 24.86 6 42.9 91 4.7 40.4 0
20:37 1013 29.91 842 24.86 6 42.8 91 4.7 40.4 0
20:38 1013 29.91 842 24.86 6 42.9 91 4.7 40.4 0
20:39 1013 29.91 842 24.86 6 42.9 90 4.5 40.2 0
20:40 1013 29.91 842 24.86 6.1 43 90 4.5 40.2 0
20:41 1013 29.91 842 24.86 6.2 43.1 90 4.6 40.2 0
20:42 1013 29.91 842 24.86 6.2 43.2 89 4.6 40.2 0
20:43 1013 29.91 842 24.86 6.2 43.2 89 4.6 40.3 0
20:44 1013 29.91 842 24.86 6.2 43.2 89 4.6 40.3 0
20:45 1013 29.91 842 24.86 6.2 43.2 89 4.6 40.2 0
20:46 1013 29.91 842 24.86 6.3 43.3 89 4.5 40.2 0
20:47 1013 29.91 842 24.86 6.3 43.3 89 4.5 40.2 0
20:48 1013 29.91 842 24.86 6.3 43.3 89 4.5 40.1 0
20:49 1013 29.91 842 24.86 6.3 43.3 88 4.5 40.1 0
20:50 1013 29.91 842 24.86 6.3 43.3 89 4.5 40.2 0
20:51 1013 29.91 842 24.86 6.2 43.1 89 4.5 40.1 0
20:52 1013 29.91 842 24.86 6.1 43 89 4.5 40.1 0
20:53 1013 29.91 842 24.86 6.1 43 90 4.5 40.1 0
20:54 1013 29.91 842 24.86 6 42.9 90 4.5 40.1 0
20:55 1013 29.91 842 24.86 6 42.9 90 4.6 40.2 0
20:56 1013 29.91 842 24.86 6 42.8 91 4.6 40.3 0
20:57 1013 29.91 842 24.86 5.9 42.7 91 4.5 40.2 0
20:58 1013 29.91 842 24.86 5.9 42.7 91 4.6 40.3 0
20:59 1013 29.91 842 24.86 5.9 42.6 91 4.6 40.3 0
21:00 1013 29.91 842 24.86 5.8 42.5 92 4.6 40.2 0
21:01 1013 29.91 842 24.86 5.8 42.5 92 4.6 40.2 0
21:02 1013 29.91 842 24.86 5.9 42.6 91 4.5 40.2 0
21:03 1013 29.91 842 24.86 5.9 42.6 92 4.6 40.3 0
21:04 1013 29.91 842 24.86 5.9 42.6 92 4.6 40.3 0
21:05 1013 29.91 842 24.86 5.9 42.5 92 4.6 40.3 0
21:06 1013 29.91 842 24.86 5.8 42.5 92 4.6 40.3 0
21:07 1013 29.91 842 24.86 5.8 42.5 92 4.6 40.3 0
21:08 1013 29.91 842 24.86 5.8 42.4 92 4.6 40.4 0
21:09 1013 29.91 842 24.86 5.8 42.4 92 4.7 40.4 0
21:10 1013 29.91 842 24.86 5.8 42.4 92 4.6 40.3 0
21:11 1013 29.91 842 24.86 5.8 42.4 92 4.6 40.4 0
21:12 1013 29.91 842 24.86 5.8 42.4 92 4.6 40.3 0
21:13 1013 29.91 842 24.86 5.8 42.4 92 4.6 40.3 0
21:14 1013 29.91 842 24.86 5.8 42.4 92 4.6 40.3 0
21:15 1013 29.91 842 24.86 5.8 42.5 92 4.6 40.3 0
21:16 1013 29.91 842 24.86 5.8 42.4 92 4.6 40.3 0
21:17 1013 29.91 842 24.86 5.8 42.4 92 4.7 40.4 0
21:18 1013 29.91 842 24.86 5.8 42.4 92 4.6 40.4 0
21:19 1013 29.91 842 24.86 5.7 42.3 93 4.6 40.3 0
21:20 1013 29.91 842 24.86 5.7 42.3 93 4.6 40.4 0
21:21 1013 29.91 842 24.86 5.7 42.3 93 4.7 40.4 0
21:22 1013 29.91 842 24.86 5.7 42.2 93 4.7 40.4 0
21:23 1013 29.91 842 24.86 5.6 42.1 94 4.7 40.4 0
21:24 1013 29.91 842 24.86 5.6 42.1 94 4.7 40.4 0
21:25 1013 29.91 842 24.86 5.6 42.1 94 4.8 40.6 0
21:26 1013 29.91 842 24.86 5.6 42.1 94 4.8 40.6 0
21:27 1013 29.91 842 24.86 5.6 42.2 94 4.8 40.6 0
21:28 1013 29.91 842 24.86 5.7 42.3 94 4.9 40.7 0
21:29 1013 29.91 842 24.86 5.7 42.2 94 4.9 40.8 0
21:30 1013 29.91 842 24.86 5.7 42.2 94 4.8 40.7 0
21:31 1013 29.91 842 24.86 5.7 42.3 94 4.9 40.8 0
21:32 1013 29.91 842 24.86 5.7 42.3 94 4.9 40.8 0
21:33 1013 29.91 842 24.86 5.8 42.4 94 4.9 40.9 0
21:34 1013 29.91 842 24.86 5.8 42.4 94 4.9 40.8 0
21:35 1013 29.91 842 24.86 5.8 42.4 94 4.9 40.8 0
21:36 1013 29.91 842 24.86 5.8 42.4 94 4.9 40.7 0
21:37 1013 29.91 842 24.86 5.8 42.4 94 4.9 40.8 0
21:38 1013 29.91 842 24.86 5.8 42.4 94 4.9 40.7 0
21:39 1013 29.91 842 24.86 5.8 42.4 94 4.8 40.7 0
21:40 1013 29.91 842 24.86 5.8 42.4 94 4.9 40.7 0
21:41 1013 29.91 842 24.86 5.7 42.3 94 4.8 40.7 0
21:42 1013 29.91 842 24.86 5.8 42.4 94 4.9 40.7 0
21:43 1013 29.91 842 24.86 5.7 42.3 94 4.8 40.7 0
21:44 1013 29.91 842 24.86 5.8 42.4 94 4.9 40.8 0
21:45 1013 29.91 842 24.86 5.7 42.3 94 4.8 40.7 0
21:46 1013 29.91 842 24.86 5.7 42.3 94 4.8 40.7 0
21:47 1013 29.91 842 24.86 5.7 42.3 94 4.8 40.7 0
21:48 1013 29.91 842 24.86 5.7 42.3 94 4.8 40.7 0
21:49 1013 29.91 842 24.86 5.7 42.2 94 4.8 40.6 0
21:50 1013 29.91 842 24.86 5.7 42.2 94 4.8 40.6 0
21:51 1013 29.91 842 24.86 5.7 42.2 94 4.8 40.6 0
21:52 1013 29.91 842 24.86 5.7 42.3 94 4.8 40.7 0
21:53 1013 29.91 842 24.86 5.7 42.2 94 4.8 40.7 0
21:54 1013 29.91 843 24.89 5.6 42.2 94 4.8 40.7 0
21:55 1013 29.91 842 24.86 5.6 42.2 94 4.8 40.7 0
21:56 1013 29.91 843 24.89 5.7 42.2 94 4.8 40.7 0
21:57 1013 29.91 842 24.86 5.7 42.2 94 4.8 40.7 0
21:58 1013 29.91 842 24.86 5.6 42.1 94 4.8 40.6 0
21:59 1013 29.91 842 24.86 5.7 42.2 94 4.8 40.7 0
22:00 1013 29.91 842 24.86 5.7 42.2 94 4.8 40.7 0
22:01 1013 29.91 842 24.86 5.7 42.2 94 4.8 40.7 0
22:02 1013 29.91 842 24.86 5.7 42.3 94 4.9 40.8 0
22:03 1013 29.91 843 24.89 5.7 42.3 94 4.9 40.8 0
22:04 1013 29.91 842 24.86 5.7 42.2 94 4.8 40.7 0
22:05 1013 29.91 843 24.89 5.6 42.2 94 4.8 40.6 0
22:06 1013 29.91 843 24.89 5.6 42.2 94 4.8 40.6 0
22:07 1013 29.91 843 24.89 5.6 42 94 4.7 40.5 0
22:08 1013 29.91 843 24.89 5.6 42 95 4.8 40.6 0
22:09 1013 29.91 843 24.89 5.5 41.9 95 4.7 40.5 0
22:10 1013 29.91 843 24.89 5.5 42 95 4.8 40.6 0
22:11 1013 29.91 843 24.89 5.5 41.9 95 4.8 40.6 0
22:12 1013 29.91 843 24.89 5.5 41.9 95 4.7 40.5 0
22:13 1014 29.94 843 24.89 5.5 41.9 95 4.7 40.5 0
22:14 1014 29.94 843 24.89 5.5 41.9 95 4.7 40.5 0
22:15 1014 29.94 843 24.89 5.5 41.9 95 4.7 40.5 0
22:16 1014 29.94 843 24.89 5.5 41.9 94 4.6 40.4 0
22:17 1014 29.94 843 24.89 5.5 42 94 4.6 40.3 0
22:18 1014 29.94 843 24.89 5.6 42 92 4.5 40 0
22:19 1014 29.94 843 24.89 5.7 42.2 91 4.2 39.6 0
22:20 1014 29.94 843 24.89 5.8 42.5 88 3.9 39 0
22:21 1014 29.94 843 24.89 6 42.8 86 3.8 38.8 0
22:22 1014 29.94 843 24.89 6.1 43 86 3.9 39 0
22:23 1014 29.94 843 24.89 6.2 43.1 86 4 39.2 0
22:24 1014 29.94 843 24.89 6.1 43 86 3.9 39 0
22:25 1014 29.94 843 24.89 6.2 43.1 82 3.4 38.1 0
22:26 1014 29.94 843 24.89 6.2 43.2 81 3.2 37.8 0
22:27 1014 29.94 843 24.89 6.3 43.4 81 3.3 37.9 0
22:28 1014 29.94 843 24.89 6.4 43.4 80 3.1 37.7 0
22:29 1014 29.94 843 24.89 6.4 43.6 78 2.9 37.3 0
22:30 1014 29.94 843 24.89 6.5 43.6 78 3 37.4 0
22:31 1014 29.94 843 24.89 6.5 43.7 78 2.9 37.3 0
22:32 1014 29.94 843 24.89 6.5 43.7 77 2.8 37 0
22:33 1014 29.94 843 24.89 6.5 43.7 78 2.9 37.2 0
22:34 1014 29.94 843 24.89 6.5 43.7 78 3 37.4 0
22:35 1014 29.94 843 24.89 6.5 43.7 79 3.1 37.5 0
22:36 1014 29.94 843 24.89 6.4 43.6 79 3 37.4 0
22:37 1014 29.94 843 24.89 6.4 43.5 77 2.6 36.7 0
22:38 1014 29.94 843 24.89 6.5 43.7 78 3 37.4 0
22:39 1014 29.94 843 24.89 6.5 43.7 78 3 37.4 0
22:40 1014 29.94 843 24.89 6.5 43.6 79 3 37.4 0
22:41 1014 29.94 843 24.89 6.4 43.5 78 2.9 37.1 0
22:42 1014 29.94 843 24.89 6.4 43.6 79 3 37.4 0
22:43 1014 29.94 843 24.89 6.4 43.6 79 3.1 37.5 0
22:44 1014 29.94 843 24.89 6.4 43.5 80 3.1 37.7 0
22:45 1014 29.94 843 24.89 6.3 43.4 81 3.3 37.9 0
22:46 1014 29.94 843 24.89 6.3 43.3 81 3.2 37.7 0
22:47 1014 29.94 843 24.89 6.2 43.2 81 3.3 37.9 0
22:48 1014 29.94 843 24.89 6.2 43.1 81 3.2 37.8 0
22:49 1014 29.94 843 24.89 6.2 43.1 82 3.2 37.8 0
22:50 1014 29.94 843 24.89 6.1 43 83 3.4 38.1 0
22:51 1014 29.94 843 24.89 6.1 43 83 3.3 38 0
22:52 1014 29.94 843 24.89 6.1 42.9 83 3.3 38 0
22:53 1014 29.94 843 24.89 6.1 42.9 84 3.5 38.3 0
22:54 1014 29.94 843 24.89 6 42.7 84 3.5 38.3 0
22:55 1014 29.94 843 24.89 5.9 42.7 85 3.5 38.4 0
22:56 1014 29.94 843 24.89 5.9 42.6 85 3.6 38.4 0
22:57 1014 29.94 843 24.89 5.9 42.6 85 3.6 38.4 0
22:58 1014 29.94 843 24.89 5.9 42.6 84 3.4 38.1 0
22:59 1014 29.94 843 24.89 5.9 42.6 84 3.4 38.2 0
23:00 1014 29.94 843 24.89 5.9 42.7 84 3.4 38.1 0
23:01 1014 29.94 843 24.89 6 42.7 83 3.4 38.1 0
23:02 1014 29.94 843 24.89 6 42.7 82 3.1 37.7 0
23:03 1014 29.94 843 24.89 6 42.9 81 3 37.3 0
23:04 1014 29.94 843 24.89 6.2 43.1 81 3.2 37.8 0
23:05 1014 29.94 843 24.89 6.2 43.2 82 3.4 38 0
23:06 1014 29.94 843 24.89 6.2 43.1 81 3.1 37.6 0
23:07 1014 29.94 843 24.89 6.2 43.2 81 3.3 37.9 0
23:08 1014 29.94 843 24.89 6.2 43.1 82 3.3 38 0
23:09 1014 29.94 843 24.89 6.1 43 82 3.2 37.8 0
23:10 1014 29.94 843 24.89 6.1 43 82 3.2 37.8 0
23:11 1014 29.94 843 24.89 6.1 43 83 3.3 38 0
23:12 1014 29.94 843 24.89 6.1 43 83 3.4 38.1 0
23:13 1014 29.94 843 24.89 6.1 42.9 82 3.2 37.8 0
23:14 1014 29.94 843 24.89 6.1 42.9 82 3.3 37.9 0
23:15 1014 29.94 843 24.89 6.1 42.9 82 3.2 37.7 0
23:16 1014 29.94 843 24.89 6.1 42.9 81 3.1 37.6 0
23:17 1014 29.94 843 24.89 6.1 43 81 3 37.5 0
23:18 1014 29.94 843 24.89 6.1 43 80 3 37.5 0
23:19 1014 29.94 843 24.89 6.1 43.1 81 3.1 37.6 0
23:20 1014 29.94 843 24.89 6.1 43.1 80 3 37.4 0
23:21 1014 29.94 843 24.89 6.1 43 81 3.1 37.5 0
23:22 1014 29.94 843 24.89 6.1 43 80 3 37.3 0
23:23 1014 29.94 843 24.89 6.2 43.1 81 3.1 37.6 0
23:24 1014 29.94 844 24.92 6.2 43.1 81 3.1 37.6 0
23:25 1014 29.94 843 24.89 6.1 43 80 3 37.4 0
23:26 1014 29.94 844 24.92 6.2 43.1 81 3.2 37.7 0
23:27 1014 29.94 844 24.92 6.1 43.1 80 3 37.5 0
23:28 1014 29.94 844 24.92 6.1 43 81 3.1 37.6 0
23:29 1014 29.94 844 24.92 6.1 43 80 2.9 37.2 0
23:30 1014 29.94 844 24.92 6.2 43.1 79 2.9 37.2 0
23:31 1014 29.94 844 24.92 6.2 43.1 79 2.9 37.2 0
23:32 1014 29.94 844 24.92 6.1 43.1 81 3.2 37.7 0
23:33 1014 29.94 844 24.92 6.1 43 80 2.9 37.2 0
23:34 1014 29.94 844 24.92 6 42.9 81 3 37.5 0
23:35 1014 29.94 844 24.92 6 42.8 81 3 37.4 0
23:36 1014 29.94 844 24.92 6 42.8 80 2.8 37.1 0
23:37 1014 29.94 844 24.92 6 42.8 79 2.7 36.8 0
23:38 1014 29.94 844 24.92 6.1 42.9 80 2.8 37.1 0
23:39 1014 29.94 844 24.92 6 42.9 80 2.9 37.3 0
23:40 1014 29.94 844 24.92 6 42.8 80 2.9 37.2 0
23:41 1014 29.94 844 24.92 6 42.7 80 2.7 36.9 0
23:42 1014 29.94 844 24.92 6 42.8 80 2.9 37.2 0
23:43 1015 29.97 844 24.92 5.9 42.7 81 3 37.4 0
23:44 1015 29.97 844 24.92 5.9 42.6 82 3.1 37.6 0
23:45 1015 29.97 844 24.92 5.9 42.6 83 3.2 37.8 0
23:46 1015 29.97 844 24.92 5.7 42.3 84 3.2 37.7 0
23:47 1015 29.97 844 24.92 5.7 42.2 84 3.2 37.7 0
23:48 1015 29.97 844 24.92 5.7 42.2 84 3.3 37.9 0
23:49 1015 29.97 844 24.92 5.6 42.1 84 3.1 37.6 0
23:50 1015 29.97 844 24.92 5.6 42.1 84 3.1 37.6 0
23:51 1015 29.97 844 24.92 5.7 42.2 84 3.1 37.7 0
23:52 1015 29.97 844 24.92 5.6 42.1 83 3.1 37.5 0
23:53 1015 29.97 844 24.92 5.6 42.1 83 3 37.5 0
23:54 1015 29.97 844 24.92 5.6 42.1 83 3 37.5 0
23:55 1015 29.97 844 24.92 5.7 42.2 83 2.9 37.3 0
23:56 1015 29.97 844 24.92 5.7 42.3 83 3 37.5 0
23:57 1015 29.97 844 24.92 5.7 42.2 81 2.7 36.9 0
23:58 1015 29.97 844 24.92 5.7 42.3 82 2.9 37.1 0
23:59 1015 29.97 844 24.92 5.7 42.3 82 2.9 37.2 0
24:00 1015 29.97 844 24.92 5.7 42.3 82 2.9 37.2 0